<?xml version="1.0" encoding="UTF-8" standalone="no" ?>
<gpx xmlns="http://www.topografix.com/GPX/1/1" xmlns:xsi="http://www.w3.org/2001/XMLSchema-instance" xsi:schemaLocation="http://www.topografix.com/GPX/1/1 http://www.topografix.com/GPX/1/1/gpx.xsd" version="1.1" creator="VisuGPX - https://www.visugpx.com">
  <metadata>
    <name>autour du suc des vents</name>
    <desc><![CDATA[parcours de 25 kms montagneux]]></desc>
  </metadata>
  <trk>
    <name><![CDATA[ACTIVE LOG133259]]></name>
    <trkseg>
      <trkpt lat="45.19318" lon="4.64864">
        <ele>426.573</ele>
        <time>2013-03-23T12:32:58Z</time>
      </trkpt>
    </trkseg>
  </trk>
  <trk>
    <name><![CDATA[ACTIVE LOG134556]]></name>
    <trkseg>
      <trkpt lat="45.19335" lon="4.64841">
        <ele>428.833</ele>
        <time>2013-03-23T12:45:55Z</time>
      </trkpt>
      <trkpt lat="45.19339" lon="4.64855">
        <ele>441.023</ele>
        <time>2013-03-23T12:46:04Z</time>
      </trkpt>
      <trkpt lat="45.19338" lon="4.64862">
        <ele>456.233</ele>
        <time>2013-03-23T12:49:33Z</time>
      </trkpt>
      <trkpt lat="45.1934" lon="4.64868">
        <ele>456.017</ele>
        <time>2013-03-23T12:49:36Z</time>
      </trkpt>
      <trkpt lat="45.19347" lon="4.64854">
        <ele>454.744</ele>
        <time>2013-03-23T12:49:44Z</time>
      </trkpt>
      <trkpt lat="45.19347" lon="4.64839">
        <ele>453.805</ele>
        <time>2013-03-23T12:49:50Z</time>
      </trkpt>
      <trkpt lat="45.19337" lon="4.64836">
        <ele>452.754</ele>
        <time>2013-03-23T12:49:58Z</time>
      </trkpt>
      <trkpt lat="45.19337" lon="4.64836">
        <ele>451.949</ele>
        <time>2013-03-23T12:50:20Z</time>
      </trkpt>
      <trkpt lat="45.19336" lon="4.64835">
        <ele>451.555</ele>
        <time>2013-03-23T12:51:27Z</time>
      </trkpt>
      <trkpt lat="45.19321" lon="4.64832">
        <ele>450.461</ele>
        <time>2013-03-23T12:51:52Z</time>
      </trkpt>
      <trkpt lat="45.19288" lon="4.64823">
        <ele>448.738</ele>
        <time>2013-03-23T12:52:04Z</time>
      </trkpt>
      <trkpt lat="45.19248" lon="4.64805">
        <ele>448.412</ele>
        <time>2013-03-23T12:52:14Z</time>
      </trkpt>
      <trkpt lat="45.19222" lon="4.64787">
        <ele>447.731</ele>
        <time>2013-03-23T12:52:20Z</time>
      </trkpt>
      <trkpt lat="45.19154" lon="4.64742">
        <ele>446.598</ele>
        <time>2013-03-23T12:52:36Z</time>
      </trkpt>
      <trkpt lat="45.19068" lon="4.64681">
        <ele>444.956</ele>
        <time>2013-03-23T12:52:55Z</time>
      </trkpt>
      <trkpt lat="45.19031" lon="4.6466">
        <ele>444.107</ele>
        <time>2013-03-23T12:53:03Z</time>
      </trkpt>
      <trkpt lat="45.18946" lon="4.6462">
        <ele>441.866</ele>
        <time>2013-03-23T12:53:19Z</time>
      </trkpt>
      <trkpt lat="45.18881" lon="4.6459">
        <ele>437.416</ele>
        <time>2013-03-23T12:53:29Z</time>
      </trkpt>
      <trkpt lat="45.18836" lon="4.646">
        <ele>436.726</ele>
        <time>2013-03-23T12:53:36Z</time>
      </trkpt>
      <trkpt lat="45.18787" lon="4.64622">
        <ele>437.498</ele>
        <time>2013-03-23T12:53:47Z</time>
      </trkpt>
      <trkpt lat="45.18757" lon="4.64621">
        <ele>437.566</ele>
        <time>2013-03-23T12:53:58Z</time>
      </trkpt>
      <trkpt lat="45.18719" lon="4.64611">
        <ele>438.679</ele>
        <time>2013-03-23T12:54:11Z</time>
      </trkpt>
      <trkpt lat="45.18668" lon="4.64597">
        <ele>439.877</ele>
        <time>2013-03-23T12:54:28Z</time>
      </trkpt>
      <trkpt lat="45.18625" lon="4.64585">
        <ele>440.846</ele>
        <time>2013-03-23T12:54:42Z</time>
      </trkpt>
      <trkpt lat="45.1857" lon="4.6457">
        <ele>443.559</ele>
        <time>2013-03-23T12:55:01Z</time>
      </trkpt>
      <trkpt lat="45.18539" lon="4.64562">
        <ele>447.499</ele>
        <time>2013-03-23T12:55:15Z</time>
      </trkpt>
      <trkpt lat="45.18504" lon="4.64553">
        <ele>448.404</ele>
        <time>2013-03-23T12:55:32Z</time>
      </trkpt>
      <trkpt lat="45.18476" lon="4.64545">
        <ele>452.127</ele>
        <time>2013-03-23T12:55:45Z</time>
      </trkpt>
      <trkpt lat="45.18451" lon="4.64538">
        <ele>450.017</ele>
        <time>2013-03-23T12:55:58Z</time>
      </trkpt>
      <trkpt lat="45.18417" lon="4.64528">
        <ele>452.161</ele>
        <time>2013-03-23T12:56:16Z</time>
      </trkpt>
      <trkpt lat="45.18375" lon="4.64517">
        <ele>455.317</ele>
        <time>2013-03-23T12:56:40Z</time>
      </trkpt>
      <trkpt lat="45.18375" lon="4.64559">
        <ele>453.574</ele>
        <time>2013-03-23T12:56:50Z</time>
      </trkpt>
      <trkpt lat="45.18377" lon="4.64621">
        <ele>450.324</ele>
        <time>2013-03-23T12:56:59Z</time>
      </trkpt>
      <trkpt lat="45.18369" lon="4.64639">
        <ele>449.174</ele>
        <time>2013-03-23T12:57:04Z</time>
      </trkpt>
      <trkpt lat="45.18369" lon="4.64639">
        <ele>450.824</ele>
        <time>2013-03-23T12:57:11Z</time>
      </trkpt>
      <trkpt lat="45.18369" lon="4.64639">
        <ele>450.81</ele>
        <time>2013-03-23T12:57:27Z</time>
      </trkpt>
      <trkpt lat="45.18369" lon="4.64639">
        <ele>450.337</ele>
        <time>2013-03-23T12:57:50Z</time>
      </trkpt>
      <trkpt lat="45.18369" lon="4.64639">
        <ele>452.579</ele>
        <time>2013-03-23T12:59:22Z</time>
      </trkpt>
      <trkpt lat="45.18346" lon="4.64619">
        <ele>454.447</ele>
        <time>2013-03-23T12:59:32Z</time>
      </trkpt>
      <trkpt lat="45.18324" lon="4.6462">
        <ele>457.891</ele>
        <time>2013-03-23T12:59:43Z</time>
      </trkpt>
      <trkpt lat="45.18324" lon="4.64645">
        <ele>459.937</ele>
        <time>2013-03-23T12:59:52Z</time>
      </trkpt>
      <trkpt lat="45.18323" lon="4.6468">
        <ele>463.538</ele>
        <time>2013-03-23T13:00:06Z</time>
      </trkpt>
      <trkpt lat="45.18325" lon="4.64719">
        <ele>464.874</ele>
        <time>2013-03-23T13:00:23Z</time>
      </trkpt>
      <trkpt lat="45.18325" lon="4.64726">
        <ele>466.315</ele>
        <time>2013-03-23T13:00:27Z</time>
      </trkpt>
      <trkpt lat="45.18325" lon="4.64726">
        <ele>467.229</ele>
        <time>2013-03-23T13:00:30Z</time>
      </trkpt>
      <trkpt lat="45.18301" lon="4.64716">
        <ele>468.406</ele>
        <time>2013-03-23T13:00:46Z</time>
      </trkpt>
      <trkpt lat="45.18275" lon="4.64688">
        <ele>473.237</ele>
        <time>2013-03-23T13:01:08Z</time>
      </trkpt>
      <trkpt lat="45.18268" lon="4.64672">
        <ele>473.913</ele>
        <time>2013-03-23T13:01:17Z</time>
      </trkpt>
      <trkpt lat="45.18263" lon="4.64668">
        <ele>475.327</ele>
        <time>2013-03-23T13:01:22Z</time>
      </trkpt>
      <trkpt lat="45.18257" lon="4.64676">
        <ele>475.878</ele>
        <time>2013-03-23T13:01:30Z</time>
      </trkpt>
      <trkpt lat="45.18258" lon="4.64718">
        <ele>477.607</ele>
        <time>2013-03-23T13:01:49Z</time>
      </trkpt>
      <trkpt lat="45.18259" lon="4.6473">
        <ele>476.558</ele>
        <time>2013-03-23T13:01:55Z</time>
      </trkpt>
      <trkpt lat="45.18259" lon="4.64756">
        <ele>477.619</ele>
        <time>2013-03-23T13:02:09Z</time>
      </trkpt>
      <trkpt lat="45.18255" lon="4.64768">
        <ele>479.995</ele>
        <time>2013-03-23T13:02:16Z</time>
      </trkpt>
      <trkpt lat="45.18254" lon="4.6477">
        <ele>479.771</ele>
        <time>2013-03-23T13:02:17Z</time>
      </trkpt>
      <trkpt lat="45.1824" lon="4.648">
        <ele>481.222</ele>
        <time>2013-03-23T13:02:34Z</time>
      </trkpt>
      <trkpt lat="45.18224" lon="4.64822">
        <ele>483.652</ele>
        <time>2013-03-23T13:02:47Z</time>
      </trkpt>
      <trkpt lat="45.18221" lon="4.64826">
        <ele>485.004</ele>
        <time>2013-03-23T13:02:58Z</time>
      </trkpt>
      <trkpt lat="45.18176" lon="4.64868">
        <ele>488.267</ele>
        <time>2013-03-23T13:03:22Z</time>
      </trkpt>
      <trkpt lat="45.18164" lon="4.64877">
        <ele>489.049</ele>
        <time>2013-03-23T13:03:29Z</time>
      </trkpt>
      <trkpt lat="45.18158" lon="4.64871">
        <ele>489.546</ele>
        <time>2013-03-23T13:03:34Z</time>
      </trkpt>
      <trkpt lat="45.18151" lon="4.64833">
        <ele>493.598</ele>
        <time>2013-03-23T13:03:52Z</time>
      </trkpt>
      <trkpt lat="45.1814" lon="4.64797">
        <ele>498.512</ele>
        <time>2013-03-23T13:04:10Z</time>
      </trkpt>
      <trkpt lat="45.18125" lon="4.64764">
        <ele>500.974</ele>
        <time>2013-03-23T13:04:26Z</time>
      </trkpt>
      <trkpt lat="45.18109" lon="4.64728">
        <ele>503.515</ele>
        <time>2013-03-23T13:04:44Z</time>
      </trkpt>
      <trkpt lat="45.18088" lon="4.64691">
        <ele>505.599</ele>
        <time>2013-03-23T13:05:01Z</time>
      </trkpt>
      <trkpt lat="45.18064" lon="4.64653">
        <ele>505.456</ele>
        <time>2013-03-23T13:05:15Z</time>
      </trkpt>
      <trkpt lat="45.18037" lon="4.64608">
        <ele>504.91</ele>
        <time>2013-03-23T13:05:35Z</time>
      </trkpt>
      <trkpt lat="45.18001" lon="4.64576">
        <ele>507.261</ele>
        <time>2013-03-23T13:05:53Z</time>
      </trkpt>
      <trkpt lat="45.17971" lon="4.64541">
        <ele>510.117</ele>
        <time>2013-03-23T13:06:13Z</time>
      </trkpt>
      <trkpt lat="45.17947" lon="4.64513">
        <ele>514.165</ele>
        <time>2013-03-23T13:06:31Z</time>
      </trkpt>
      <trkpt lat="45.17916" lon="4.6448">
        <ele>514.665</ele>
        <time>2013-03-23T13:06:47Z</time>
      </trkpt>
      <trkpt lat="45.1789" lon="4.64477">
        <ele>515.604</ele>
        <time>2013-03-23T13:07:00Z</time>
      </trkpt>
      <trkpt lat="45.17867" lon="4.64471">
        <ele>518.016</ele>
        <time>2013-03-23T13:07:13Z</time>
      </trkpt>
      <trkpt lat="45.17871" lon="4.64457">
        <ele>518.761</ele>
        <time>2013-03-23T13:07:17Z</time>
      </trkpt>
      <trkpt lat="45.17892" lon="4.64416">
        <ele>520.095</ele>
        <time>2013-03-23T13:07:34Z</time>
      </trkpt>
      <trkpt lat="45.1791" lon="4.64365">
        <ele>521.255</ele>
        <time>2013-03-23T13:07:52Z</time>
      </trkpt>
      <trkpt lat="45.17917" lon="4.64334">
        <ele>522.834</ele>
        <time>2013-03-23T13:08:04Z</time>
      </trkpt>
      <trkpt lat="45.17934" lon="4.64301">
        <ele>526.093</ele>
        <time>2013-03-23T13:08:23Z</time>
      </trkpt>
      <trkpt lat="45.17955" lon="4.64274">
        <ele>530.175</ele>
        <time>2013-03-23T13:08:42Z</time>
      </trkpt>
      <trkpt lat="45.17967" lon="4.64241">
        <ele>533.593</ele>
        <time>2013-03-23T13:09:00Z</time>
      </trkpt>
      <trkpt lat="45.17976" lon="4.64203">
        <ele>533.407</ele>
        <time>2013-03-23T13:09:20Z</time>
      </trkpt>
      <trkpt lat="45.17984" lon="4.64172">
        <ele>535.669</ele>
        <time>2013-03-23T13:09:38Z</time>
      </trkpt>
      <trkpt lat="45.17993" lon="4.64134">
        <ele>537.201</ele>
        <time>2013-03-23T13:10:02Z</time>
      </trkpt>
      <trkpt lat="45.17995" lon="4.64129">
        <ele>541.241</ele>
        <time>2013-03-23T13:10:23Z</time>
      </trkpt>
      <trkpt lat="45.17993" lon="4.64086">
        <ele>547.724</ele>
        <time>2013-03-23T13:10:41Z</time>
      </trkpt>
      <trkpt lat="45.17985" lon="4.64068">
        <ele>549.051</ele>
        <time>2013-03-23T13:10:47Z</time>
      </trkpt>
      <trkpt lat="45.17979" lon="4.64033">
        <ele>553.186</ele>
        <time>2013-03-23T13:11:09Z</time>
      </trkpt>
      <trkpt lat="45.17979" lon="4.64009">
        <ele>552.907</ele>
        <time>2013-03-23T13:11:22Z</time>
      </trkpt>
      <trkpt lat="45.17974" lon="4.6398">
        <ele>556.764</ele>
        <time>2013-03-23T13:11:43Z</time>
      </trkpt>
      <trkpt lat="45.17968" lon="4.63955">
        <ele>561.071</ele>
        <time>2013-03-23T13:11:58Z</time>
      </trkpt>
      <trkpt lat="45.17958" lon="4.63927">
        <ele>566.168</ele>
        <time>2013-03-23T13:12:13Z</time>
      </trkpt>
      <trkpt lat="45.17943" lon="4.63905">
        <ele>569.074</ele>
        <time>2013-03-23T13:12:29Z</time>
      </trkpt>
      <trkpt lat="45.17929" lon="4.63887">
        <ele>571.372</ele>
        <time>2013-03-23T13:12:43Z</time>
      </trkpt>
      <trkpt lat="45.17928" lon="4.63886">
        <ele>570.869</ele>
        <time>2013-03-23T13:12:50Z</time>
      </trkpt>
      <trkpt lat="45.17913" lon="4.63851">
        <ele>571.412</ele>
        <time>2013-03-23T13:13:08Z</time>
      </trkpt>
      <trkpt lat="45.17907" lon="4.63825">
        <ele>573.153</ele>
        <time>2013-03-23T13:13:23Z</time>
      </trkpt>
      <trkpt lat="45.17904" lon="4.6379">
        <ele>573.521</ele>
        <time>2013-03-23T13:13:41Z</time>
      </trkpt>
      <trkpt lat="45.17893" lon="4.6375">
        <ele>575.608</ele>
        <time>2013-03-23T13:14:01Z</time>
      </trkpt>
      <trkpt lat="45.17879" lon="4.63711">
        <ele>577.152</ele>
        <time>2013-03-23T13:14:20Z</time>
      </trkpt>
      <trkpt lat="45.17861" lon="4.63678">
        <ele>576.487</ele>
        <time>2013-03-23T13:14:33Z</time>
      </trkpt>
      <trkpt lat="45.17836" lon="4.6363">
        <ele>577.856</ele>
        <time>2013-03-23T13:14:49Z</time>
      </trkpt>
      <trkpt lat="45.17814" lon="4.63577">
        <ele>573.816</ele>
        <time>2013-03-23T13:15:01Z</time>
      </trkpt>
      <trkpt lat="45.17779" lon="4.63504">
        <ele>570.619</ele>
        <time>2013-03-23T13:15:15Z</time>
      </trkpt>
      <trkpt lat="45.17753" lon="4.63458">
        <ele>574.252</ele>
        <time>2013-03-23T13:15:27Z</time>
      </trkpt>
      <trkpt lat="45.17727" lon="4.6341">
        <ele>574.379</ele>
        <time>2013-03-23T13:15:41Z</time>
      </trkpt>
      <trkpt lat="45.17706" lon="4.63349">
        <ele>571.898</ele>
        <time>2013-03-23T13:15:54Z</time>
      </trkpt>
      <trkpt lat="45.17704" lon="4.63339">
        <ele>571.582</ele>
        <time>2013-03-23T13:15:56Z</time>
      </trkpt>
      <trkpt lat="45.17699" lon="4.63301">
        <ele>570.625</ele>
        <time>2013-03-23T13:16:02Z</time>
      </trkpt>
      <trkpt lat="45.17702" lon="4.63258">
        <ele>569.197</ele>
        <time>2013-03-23T13:16:08Z</time>
      </trkpt>
      <trkpt lat="45.17692" lon="4.63239">
        <ele>569.928</ele>
        <time>2013-03-23T13:16:12Z</time>
      </trkpt>
      <trkpt lat="45.17635" lon="4.63175">
        <ele>564.983</ele>
        <time>2013-03-23T13:16:25Z</time>
      </trkpt>
      <trkpt lat="45.17579" lon="4.63117">
        <ele>559.357</ele>
        <time>2013-03-23T13:16:35Z</time>
      </trkpt>
      <trkpt lat="45.17579" lon="4.63117">
        <ele>556.21</ele>
        <time>2013-03-23T13:16:41Z</time>
      </trkpt>
      <trkpt lat="45.17558" lon="4.63072">
        <ele>555.696</ele>
        <time>2013-03-23T13:16:53Z</time>
      </trkpt>
      <trkpt lat="45.17558" lon="4.63072">
        <ele>555.722</ele>
        <time>2013-03-23T13:16:55Z</time>
      </trkpt>
      <trkpt lat="45.17545" lon="4.63083">
        <ele>556.201</ele>
        <time>2013-03-23T13:17:03Z</time>
      </trkpt>
      <trkpt lat="45.17531" lon="4.63092">
        <ele>556.244</ele>
        <time>2013-03-23T13:17:12Z</time>
      </trkpt>
      <trkpt lat="45.17529" lon="4.63094">
        <ele>556.678</ele>
        <time>2013-03-23T13:17:14Z</time>
      </trkpt>
      <trkpt lat="45.1753" lon="4.63093">
        <ele>555.739</ele>
        <time>2013-03-23T13:17:22Z</time>
      </trkpt>
      <trkpt lat="45.17544" lon="4.63083">
        <ele>555.796</ele>
        <time>2013-03-23T13:17:27Z</time>
      </trkpt>
      <trkpt lat="45.17555" lon="4.63075">
        <ele>555.749</ele>
        <time>2013-03-23T13:17:30Z</time>
      </trkpt>
      <trkpt lat="45.1755" lon="4.63058">
        <ele>554.404</ele>
        <time>2013-03-23T13:17:35Z</time>
      </trkpt>
      <trkpt lat="45.1754" lon="4.63037">
        <ele>552.713</ele>
        <time>2013-03-23T13:17:39Z</time>
      </trkpt>
      <trkpt lat="45.17526" lon="4.62998">
        <ele>550.139</ele>
        <time>2013-03-23T13:17:44Z</time>
      </trkpt>
      <trkpt lat="45.17522" lon="4.62979">
        <ele>549.849</ele>
        <time>2013-03-23T13:17:46Z</time>
      </trkpt>
      <trkpt lat="45.17519" lon="4.62951">
        <ele>548.304</ele>
        <time>2013-03-23T13:17:52Z</time>
      </trkpt>
      <trkpt lat="45.1757" lon="4.6285">
        <ele>541.466</ele>
        <time>2013-03-23T13:18:03Z</time>
      </trkpt>
      <trkpt lat="45.1759" lon="4.6279">
        <ele>537.969</ele>
        <time>2013-03-23T13:18:08Z</time>
      </trkpt>
      <trkpt lat="45.17596" lon="4.62765">
        <ele>536.489</ele>
        <time>2013-03-23T13:18:10Z</time>
      </trkpt>
      <trkpt lat="45.17611" lon="4.62728">
        <ele>535.002</ele>
        <time>2013-03-23T13:18:13Z</time>
      </trkpt>
      <trkpt lat="45.17602" lon="4.62688">
        <ele>534.802</ele>
        <time>2013-03-23T13:18:17Z</time>
      </trkpt>
      <trkpt lat="45.17582" lon="4.62691">
        <ele>535.534</ele>
        <time>2013-03-23T13:18:20Z</time>
      </trkpt>
      <trkpt lat="45.17554" lon="4.62699">
        <ele>539.07</ele>
        <time>2013-03-23T13:18:27Z</time>
      </trkpt>
      <trkpt lat="45.17527" lon="4.62685">
        <ele>542.701</ele>
        <time>2013-03-23T13:18:43Z</time>
      </trkpt>
      <trkpt lat="45.17502" lon="4.62664">
        <ele>546.218</ele>
        <time>2013-03-23T13:19:00Z</time>
      </trkpt>
      <trkpt lat="45.17495" lon="4.62659">
        <ele>546.881</ele>
        <time>2013-03-23T13:19:06Z</time>
      </trkpt>
      <trkpt lat="45.17503" lon="4.62621">
        <ele>550.812</ele>
        <time>2013-03-23T13:19:25Z</time>
      </trkpt>
      <trkpt lat="45.17523" lon="4.62598">
        <ele>553.397</ele>
        <time>2013-03-23T13:19:40Z</time>
      </trkpt>
      <trkpt lat="45.17538" lon="4.62565">
        <ele>554.487</ele>
        <time>2013-03-23T13:19:58Z</time>
      </trkpt>
      <trkpt lat="45.17532" lon="4.62533">
        <ele>556.69</ele>
        <time>2013-03-23T13:20:14Z</time>
      </trkpt>
      <trkpt lat="45.17526" lon="4.62517">
        <ele>559.067</ele>
        <time>2013-03-23T13:20:21Z</time>
      </trkpt>
      <trkpt lat="45.17521" lon="4.62501">
        <ele>564.399</ele>
        <time>2013-03-23T13:20:32Z</time>
      </trkpt>
      <trkpt lat="45.1752" lon="4.62466">
        <ele>566.973</ele>
        <time>2013-03-23T13:20:45Z</time>
      </trkpt>
      <trkpt lat="45.17507" lon="4.62435">
        <ele>571.093</ele>
        <time>2013-03-23T13:20:57Z</time>
      </trkpt>
      <trkpt lat="45.17503" lon="4.62429">
        <ele>572.531</ele>
        <time>2013-03-23T13:21:01Z</time>
      </trkpt>
      <trkpt lat="45.17489" lon="4.62401">
        <ele>573.915</ele>
        <time>2013-03-23T13:21:16Z</time>
      </trkpt>
      <trkpt lat="45.1748" lon="4.62378">
        <ele>576.38</ele>
        <time>2013-03-23T13:21:28Z</time>
      </trkpt>
      <trkpt lat="45.17471" lon="4.62344">
        <ele>575.179</ele>
        <time>2013-03-23T13:21:44Z</time>
      </trkpt>
      <trkpt lat="45.17466" lon="4.62327">
        <ele>574.827</ele>
        <time>2013-03-23T13:21:52Z</time>
      </trkpt>
      <trkpt lat="45.17455" lon="4.62288">
        <ele>581.119</ele>
        <time>2013-03-23T13:22:10Z</time>
      </trkpt>
      <trkpt lat="45.17452" lon="4.6227">
        <ele>584.984</ele>
        <time>2013-03-23T13:22:23Z</time>
      </trkpt>
      <trkpt lat="45.17427" lon="4.62257">
        <ele>586.277</ele>
        <time>2013-03-23T13:22:33Z</time>
      </trkpt>
      <trkpt lat="45.17423" lon="4.6225">
        <ele>587.048</ele>
        <time>2013-03-23T13:22:37Z</time>
      </trkpt>
      <trkpt lat="45.17418" lon="4.62245">
        <ele>591.087</ele>
        <time>2013-03-23T13:22:41Z</time>
      </trkpt>
      <trkpt lat="45.17414" lon="4.62236">
        <ele>592.997</ele>
        <time>2013-03-23T13:22:46Z</time>
      </trkpt>
      <trkpt lat="45.17402" lon="4.62238">
        <ele>594.538</ele>
        <time>2013-03-23T13:22:55Z</time>
      </trkpt>
      <trkpt lat="45.17399" lon="4.6224">
        <ele>595.012</ele>
        <time>2013-03-23T13:23:00Z</time>
      </trkpt>
      <trkpt lat="45.17389" lon="4.62238">
        <ele>597.424</ele>
        <time>2013-03-23T13:23:07Z</time>
      </trkpt>
      <trkpt lat="45.17379" lon="4.62242">
        <ele>598.778</ele>
        <time>2013-03-23T13:23:16Z</time>
      </trkpt>
      <trkpt lat="45.17378" lon="4.62242">
        <ele>599.049</ele>
        <time>2013-03-23T13:23:17Z</time>
      </trkpt>
      <trkpt lat="45.17369" lon="4.62244">
        <ele>602.477</ele>
        <time>2013-03-23T13:23:27Z</time>
      </trkpt>
      <trkpt lat="45.17368" lon="4.62242">
        <ele>601.695</ele>
        <time>2013-03-23T13:23:40Z</time>
      </trkpt>
      <trkpt lat="45.17369" lon="4.62242">
        <ele>600.96</ele>
        <time>2013-03-23T13:23:55Z</time>
      </trkpt>
      <trkpt lat="45.17368" lon="4.62241">
        <ele>600.72</ele>
        <time>2013-03-23T13:24:20Z</time>
      </trkpt>
      <trkpt lat="45.17368" lon="4.62241">
        <ele>600.458</ele>
        <time>2013-03-23T13:24:35Z</time>
      </trkpt>
      <trkpt lat="45.17371" lon="4.6222">
        <ele>599.61</ele>
        <time>2013-03-23T13:24:44Z</time>
      </trkpt>
      <trkpt lat="45.17374" lon="4.62203">
        <ele>600.742</ele>
        <time>2013-03-23T13:24:50Z</time>
      </trkpt>
      <trkpt lat="45.17368" lon="4.62156">
        <ele>602.527</ele>
        <time>2013-03-23T13:25:02Z</time>
      </trkpt>
      <trkpt lat="45.17369" lon="4.62145">
        <ele>602.762</ele>
        <time>2013-03-23T13:25:06Z</time>
      </trkpt>
      <trkpt lat="45.17366" lon="4.62134">
        <ele>603.741</ele>
        <time>2013-03-23T13:25:10Z</time>
      </trkpt>
      <trkpt lat="45.17366" lon="4.6212">
        <ele>604.366</ele>
        <time>2013-03-23T13:25:15Z</time>
      </trkpt>
      <trkpt lat="45.17376" lon="4.62121">
        <ele>605.727</ele>
        <time>2013-03-23T13:25:21Z</time>
      </trkpt>
      <trkpt lat="45.17398" lon="4.62127">
        <ele>609.869</ele>
        <time>2013-03-23T13:25:35Z</time>
      </trkpt>
      <trkpt lat="45.17406" lon="4.62129">
        <ele>610.563</ele>
        <time>2013-03-23T13:25:39Z</time>
      </trkpt>
      <trkpt lat="45.17433" lon="4.62119">
        <ele>613.686</ele>
        <time>2013-03-23T13:25:52Z</time>
      </trkpt>
      <trkpt lat="45.17443" lon="4.62116">
        <ele>615.051</ele>
        <time>2013-03-23T13:26:00Z</time>
      </trkpt>
      <trkpt lat="45.17457" lon="4.62113">
        <ele>618.098</ele>
        <time>2013-03-23T13:26:13Z</time>
      </trkpt>
      <trkpt lat="45.1746" lon="4.62114">
        <ele>617.175</ele>
        <time>2013-03-23T13:26:25Z</time>
      </trkpt>
      <trkpt lat="45.1747" lon="4.62112">
        <ele>617.669</ele>
        <time>2013-03-23T13:26:55Z</time>
      </trkpt>
      <trkpt lat="45.17487" lon="4.62106">
        <ele>618.379</ele>
        <time>2013-03-23T13:27:08Z</time>
      </trkpt>
      <trkpt lat="45.17499" lon="4.62103">
        <ele>619.322</ele>
        <time>2013-03-23T13:27:18Z</time>
      </trkpt>
      <trkpt lat="45.17516" lon="4.621">
        <ele>619.966</ele>
        <time>2013-03-23T13:27:32Z</time>
      </trkpt>
      <trkpt lat="45.17535" lon="4.62093">
        <ele>621.524</ele>
        <time>2013-03-23T13:27:48Z</time>
      </trkpt>
      <trkpt lat="45.1756" lon="4.6209">
        <ele>622.441</ele>
        <time>2013-03-23T13:28:08Z</time>
      </trkpt>
      <trkpt lat="45.17564" lon="4.62089">
        <ele>623.461</ele>
        <time>2013-03-23T13:28:12Z</time>
      </trkpt>
      <trkpt lat="45.17567" lon="4.62086">
        <ele>624.11</ele>
        <time>2013-03-23T13:28:23Z</time>
      </trkpt>
      <trkpt lat="45.17592" lon="4.62093">
        <ele>624.781</ele>
        <time>2013-03-23T13:28:37Z</time>
      </trkpt>
      <trkpt lat="45.17623" lon="4.62091">
        <ele>624.498</ele>
        <time>2013-03-23T13:28:55Z</time>
      </trkpt>
      <trkpt lat="45.17646" lon="4.62087">
        <ele>621.765</ele>
        <time>2013-03-23T13:29:03Z</time>
      </trkpt>
      <trkpt lat="45.17665" lon="4.62072">
        <ele>620.315</ele>
        <time>2013-03-23T13:29:08Z</time>
      </trkpt>
      <trkpt lat="45.17684" lon="4.62046">
        <ele>619.338</ele>
        <time>2013-03-23T13:29:14Z</time>
      </trkpt>
      <trkpt lat="45.1769" lon="4.61992">
        <ele>618.088</ele>
        <time>2013-03-23T13:29:24Z</time>
      </trkpt>
      <trkpt lat="45.17687" lon="4.6194">
        <ele>620.022</ele>
        <time>2013-03-23T13:29:37Z</time>
      </trkpt>
      <trkpt lat="45.17681" lon="4.61889">
        <ele>621.573</ele>
        <time>2013-03-23T13:29:53Z</time>
      </trkpt>
      <trkpt lat="45.17676" lon="4.61842">
        <ele>623.655</ele>
        <time>2013-03-23T13:30:07Z</time>
      </trkpt>
      <trkpt lat="45.17668" lon="4.61791">
        <ele>624.712</ele>
        <time>2013-03-23T13:30:28Z</time>
      </trkpt>
      <trkpt lat="45.17664" lon="4.61753">
        <ele>624.853</ele>
        <time>2013-03-23T13:30:45Z</time>
      </trkpt>
      <trkpt lat="45.17663" lon="4.61727">
        <ele>625.33</ele>
        <time>2013-03-23T13:30:57Z</time>
      </trkpt>
      <trkpt lat="45.17663" lon="4.61727">
        <ele>625.198</ele>
        <time>2013-03-23T13:30:58Z</time>
      </trkpt>
      <trkpt lat="45.17666" lon="4.61718">
        <ele>627.04</ele>
        <time>2013-03-23T13:31:04Z</time>
      </trkpt>
      <trkpt lat="45.17689" lon="4.61702">
        <ele>626.859</ele>
        <time>2013-03-23T13:31:14Z</time>
      </trkpt>
      <trkpt lat="45.17715" lon="4.61679">
        <ele>629.596</ele>
        <time>2013-03-23T13:31:27Z</time>
      </trkpt>
      <trkpt lat="45.17733" lon="4.61661">
        <ele>631.353</ele>
        <time>2013-03-23T13:31:39Z</time>
      </trkpt>
      <trkpt lat="45.17743" lon="4.6165">
        <ele>633.401</ele>
        <time>2013-03-23T13:31:46Z</time>
      </trkpt>
      <trkpt lat="45.17752" lon="4.61634">
        <ele>636.208</ele>
        <time>2013-03-23T13:31:53Z</time>
      </trkpt>
      <trkpt lat="45.17755" lon="4.61623">
        <ele>637.505</ele>
        <time>2013-03-23T13:31:58Z</time>
      </trkpt>
      <trkpt lat="45.1774" lon="4.61613">
        <ele>637.975</ele>
        <time>2013-03-23T13:32:08Z</time>
      </trkpt>
      <trkpt lat="45.1772" lon="4.61607">
        <ele>639.44</ele>
        <time>2013-03-23T13:32:24Z</time>
      </trkpt>
      <trkpt lat="45.17712" lon="4.61604">
        <ele>640.514</ele>
        <time>2013-03-23T13:32:30Z</time>
      </trkpt>
      <trkpt lat="45.17697" lon="4.61593">
        <ele>640.722</ele>
        <time>2013-03-23T13:32:43Z</time>
      </trkpt>
      <trkpt lat="45.17673" lon="4.61576">
        <ele>641.271</ele>
        <time>2013-03-23T13:33:02Z</time>
      </trkpt>
      <trkpt lat="45.17652" lon="4.6157">
        <ele>642.507</ele>
        <time>2013-03-23T13:33:17Z</time>
      </trkpt>
      <trkpt lat="45.17649" lon="4.6157">
        <ele>642.862</ele>
        <time>2013-03-23T13:33:21Z</time>
      </trkpt>
      <trkpt lat="45.17629" lon="4.61567">
        <ele>645.75</ele>
        <time>2013-03-23T13:33:35Z</time>
      </trkpt>
      <trkpt lat="45.17604" lon="4.61555">
        <ele>646.309</ele>
        <time>2013-03-23T13:33:55Z</time>
      </trkpt>
      <trkpt lat="45.17604" lon="4.61555">
        <ele>646.589</ele>
        <time>2013-03-23T13:33:57Z</time>
      </trkpt>
      <trkpt lat="45.17604" lon="4.61555">
        <ele>647.09</ele>
        <time>2013-03-23T13:34:04Z</time>
      </trkpt>
      <trkpt lat="45.17564" lon="4.61521">
        <ele>649.027</ele>
        <time>2013-03-23T13:34:25Z</time>
      </trkpt>
      <trkpt lat="45.17535" lon="4.61494">
        <ele>648.186</ele>
        <time>2013-03-23T13:34:37Z</time>
      </trkpt>
      <trkpt lat="45.17506" lon="4.61421">
        <ele>645.293</ele>
        <time>2013-03-23T13:34:51Z</time>
      </trkpt>
      <trkpt lat="45.17504" lon="4.61414">
        <ele>645.066</ele>
        <time>2013-03-23T13:34:52Z</time>
      </trkpt>
      <trkpt lat="45.17483" lon="4.61378">
        <ele>642.976</ele>
        <time>2013-03-23T13:34:57Z</time>
      </trkpt>
      <trkpt lat="45.17449" lon="4.61345">
        <ele>639.752</ele>
        <time>2013-03-23T13:35:03Z</time>
      </trkpt>
      <trkpt lat="45.17413" lon="4.61319">
        <ele>634.816</ele>
        <time>2013-03-23T13:35:09Z</time>
      </trkpt>
      <trkpt lat="45.1738" lon="4.61274">
        <ele>635.068</ele>
        <time>2013-03-23T13:35:18Z</time>
      </trkpt>
      <trkpt lat="45.17371" lon="4.61242">
        <ele>637.669</ele>
        <time>2013-03-23T13:35:28Z</time>
      </trkpt>
      <trkpt lat="45.17345" lon="4.61231">
        <ele>638.226</ele>
        <time>2013-03-23T13:35:41Z</time>
      </trkpt>
      <trkpt lat="45.17317" lon="4.61214">
        <ele>638.245</ele>
        <time>2013-03-23T13:35:57Z</time>
      </trkpt>
      <trkpt lat="45.17298" lon="4.61188">
        <ele>639.558</ele>
        <time>2013-03-23T13:36:11Z</time>
      </trkpt>
      <trkpt lat="45.17285" lon="4.61141">
        <ele>641.781</ele>
        <time>2013-03-23T13:36:28Z</time>
      </trkpt>
      <trkpt lat="45.17268" lon="4.61086">
        <ele>642.296</ele>
        <time>2013-03-23T13:36:41Z</time>
      </trkpt>
      <trkpt lat="45.17255" lon="4.61052">
        <ele>647.746</ele>
        <time>2013-03-23T13:36:51Z</time>
      </trkpt>
      <trkpt lat="45.17243" lon="4.61015">
        <ele>649.615</ele>
        <time>2013-03-23T13:37:01Z</time>
      </trkpt>
      <trkpt lat="45.17243" lon="4.60996">
        <ele>648.164</ele>
        <time>2013-03-23T13:37:04Z</time>
      </trkpt>
      <trkpt lat="45.17245" lon="4.60966">
        <ele>645.256</ele>
        <time>2013-03-23T13:37:08Z</time>
      </trkpt>
      <trkpt lat="45.17266" lon="4.60905">
        <ele>643.448</ele>
        <time>2013-03-23T13:37:18Z</time>
      </trkpt>
      <trkpt lat="45.17269" lon="4.60893">
        <ele>643.523</ele>
        <time>2013-03-23T13:37:20Z</time>
      </trkpt>
      <trkpt lat="45.17279" lon="4.60851">
        <ele>644.981</ele>
        <time>2013-03-23T13:37:30Z</time>
      </trkpt>
      <trkpt lat="45.17283" lon="4.60831">
        <ele>646.909</ele>
        <time>2013-03-23T13:37:36Z</time>
      </trkpt>
      <trkpt lat="45.17276" lon="4.60818">
        <ele>649.942</ele>
        <time>2013-03-23T13:37:41Z</time>
      </trkpt>
      <trkpt lat="45.17258" lon="4.60811">
        <ele>652.671</ele>
        <time>2013-03-23T13:37:52Z</time>
      </trkpt>
      <trkpt lat="45.17253" lon="4.60796">
        <ele>655.28</ele>
        <time>2013-03-23T13:37:59Z</time>
      </trkpt>
      <trkpt lat="45.17251" lon="4.6077">
        <ele>656.933</ele>
        <time>2013-03-23T13:38:11Z</time>
      </trkpt>
      <trkpt lat="45.17244" lon="4.60742">
        <ele>655.961</ele>
        <time>2013-03-23T13:38:25Z</time>
      </trkpt>
      <trkpt lat="45.17244" lon="4.60742">
        <ele>656.779</ele>
        <time>2013-03-23T13:38:39Z</time>
      </trkpt>
      <trkpt lat="45.17244" lon="4.60742">
        <ele>656.789</ele>
        <time>2013-03-23T13:39:44Z</time>
      </trkpt>
      <trkpt lat="45.17234" lon="4.60699">
        <ele>655.978</ele>
        <time>2013-03-23T13:39:54Z</time>
      </trkpt>
      <trkpt lat="45.17225" lon="4.6067">
        <ele>654.672</ele>
        <time>2013-03-23T13:39:59Z</time>
      </trkpt>
      <trkpt lat="45.17208" lon="4.60619">
        <ele>653.206</ele>
        <time>2013-03-23T13:40:10Z</time>
      </trkpt>
      <trkpt lat="45.17207" lon="4.60587">
        <ele>657.165</ele>
        <time>2013-03-23T13:40:20Z</time>
      </trkpt>
      <trkpt lat="45.17202" lon="4.60549">
        <ele>657.658</ele>
        <time>2013-03-23T13:40:33Z</time>
      </trkpt>
      <trkpt lat="45.17189" lon="4.60506">
        <ele>659.586</ele>
        <time>2013-03-23T13:40:49Z</time>
      </trkpt>
      <trkpt lat="45.17193" lon="4.60488">
        <ele>660.453</ele>
        <time>2013-03-23T13:40:58Z</time>
      </trkpt>
      <trkpt lat="45.17205" lon="4.60459">
        <ele>663.975</ele>
        <time>2013-03-23T13:41:13Z</time>
      </trkpt>
      <trkpt lat="45.17203" lon="4.60452">
        <ele>665.262</ele>
        <time>2013-03-23T13:41:17Z</time>
      </trkpt>
      <trkpt lat="45.17203" lon="4.60452">
        <ele>664.527</ele>
        <time>2013-03-23T13:41:29Z</time>
      </trkpt>
      <trkpt lat="45.17188" lon="4.6044">
        <ele>663.891</ele>
        <time>2013-03-23T13:41:50Z</time>
      </trkpt>
      <trkpt lat="45.17174" lon="4.60409">
        <ele>664.663</ele>
        <time>2013-03-23T13:42:01Z</time>
      </trkpt>
      <trkpt lat="45.17172" lon="4.60406">
        <ele>664.702</ele>
        <time>2013-03-23T13:42:02Z</time>
      </trkpt>
      <trkpt lat="45.17163" lon="4.60397">
        <ele>664.997</ele>
        <time>2013-03-23T13:42:06Z</time>
      </trkpt>
      <trkpt lat="45.17147" lon="4.60392">
        <ele>663.092</ele>
        <time>2013-03-23T13:42:10Z</time>
      </trkpt>
      <trkpt lat="45.17127" lon="4.60354">
        <ele>659.859</ele>
        <time>2013-03-23T13:42:16Z</time>
      </trkpt>
      <trkpt lat="45.1712" lon="4.60299">
        <ele>658.123</ele>
        <time>2013-03-23T13:42:22Z</time>
      </trkpt>
      <trkpt lat="45.17102" lon="4.60245">
        <ele>658.35</ele>
        <time>2013-03-23T13:42:29Z</time>
      </trkpt>
      <trkpt lat="45.17086" lon="4.60134">
        <ele>655.39</ele>
        <time>2013-03-23T13:42:43Z</time>
      </trkpt>
      <trkpt lat="45.17085" lon="4.60103">
        <ele>654.096</ele>
        <time>2013-03-23T13:42:46Z</time>
      </trkpt>
      <trkpt lat="45.17061" lon="4.6007">
        <ele>651.461</ele>
        <time>2013-03-23T13:42:51Z</time>
      </trkpt>
      <trkpt lat="45.17045" lon="4.60092">
        <ele>651.201</ele>
        <time>2013-03-23T13:42:55Z</time>
      </trkpt>
      <trkpt lat="45.17036" lon="4.60115">
        <ele>650.428</ele>
        <time>2013-03-23T13:42:58Z</time>
      </trkpt>
      <trkpt lat="45.17025" lon="4.60174">
        <ele>649.061</ele>
        <time>2013-03-23T13:43:07Z</time>
      </trkpt>
      <trkpt lat="45.17019" lon="4.60201">
        <ele>649.026</ele>
        <time>2013-03-23T13:43:11Z</time>
      </trkpt>
      <trkpt lat="45.17003" lon="4.60244">
        <ele>647.521</ele>
        <time>2013-03-23T13:43:19Z</time>
      </trkpt>
      <trkpt lat="45.16971" lon="4.60295">
        <ele>650.162</ele>
        <time>2013-03-23T13:43:31Z</time>
      </trkpt>
      <trkpt lat="45.16943" lon="4.6031">
        <ele>651.743</ele>
        <time>2013-03-23T13:43:44Z</time>
      </trkpt>
      <trkpt lat="45.1692" lon="4.60327">
        <ele>652.603</ele>
        <time>2013-03-23T13:43:54Z</time>
      </trkpt>
      <trkpt lat="45.16896" lon="4.60361">
        <ele>654.688</ele>
        <time>2013-03-23T13:44:05Z</time>
      </trkpt>
      <trkpt lat="45.16861" lon="4.60382">
        <ele>654.803</ele>
        <time>2013-03-23T13:44:18Z</time>
      </trkpt>
      <trkpt lat="45.16831" lon="4.60365">
        <ele>654.945</ele>
        <time>2013-03-23T13:44:29Z</time>
      </trkpt>
      <trkpt lat="45.16807" lon="4.6033">
        <ele>657.504</ele>
        <time>2013-03-23T13:44:43Z</time>
      </trkpt>
      <trkpt lat="45.1679" lon="4.60299">
        <ele>662.124</ele>
        <time>2013-03-23T13:44:58Z</time>
      </trkpt>
      <trkpt lat="45.16772" lon="4.60274">
        <ele>666.952</ele>
        <time>2013-03-23T13:45:15Z</time>
      </trkpt>
      <trkpt lat="45.16756" lon="4.60262">
        <ele>668.317</ele>
        <time>2013-03-23T13:45:29Z</time>
      </trkpt>
      <trkpt lat="45.16734" lon="4.60246">
        <ele>672.069</ele>
        <time>2013-03-23T13:45:46Z</time>
      </trkpt>
      <trkpt lat="45.16734" lon="4.60246">
        <ele>675.248</ele>
        <time>2013-03-23T13:46:04Z</time>
      </trkpt>
      <trkpt lat="45.16695" lon="4.60218">
        <ele>680.112</ele>
        <time>2013-03-23T13:46:25Z</time>
      </trkpt>
      <trkpt lat="45.16674" lon="4.60198">
        <ele>681.643</ele>
        <time>2013-03-23T13:46:46Z</time>
      </trkpt>
      <trkpt lat="45.16646" lon="4.6017">
        <ele>679.747</ele>
        <time>2013-03-23T13:47:10Z</time>
      </trkpt>
      <trkpt lat="45.1663" lon="4.60151">
        <ele>680.568</ele>
        <time>2013-03-23T13:47:22Z</time>
      </trkpt>
      <trkpt lat="45.16626" lon="4.60131">
        <ele>681.14</ele>
        <time>2013-03-23T13:48:41Z</time>
      </trkpt>
      <trkpt lat="45.16625" lon="4.60066">
        <ele>683.314</ele>
        <time>2013-03-23T13:48:57Z</time>
      </trkpt>
      <trkpt lat="45.16623" lon="4.60029">
        <ele>685.106</ele>
        <time>2013-03-23T13:49:09Z</time>
      </trkpt>
      <trkpt lat="45.1663" lon="4.6003">
        <ele>687.577</ele>
        <time>2013-03-23T13:49:16Z</time>
      </trkpt>
      <trkpt lat="45.16652" lon="4.60049">
        <ele>692.358</ele>
        <time>2013-03-23T13:49:34Z</time>
      </trkpt>
      <trkpt lat="45.16654" lon="4.60059">
        <ele>694.289</ele>
        <time>2013-03-23T13:49:49Z</time>
      </trkpt>
      <trkpt lat="45.16654" lon="4.60059">
        <ele>694.277</ele>
        <time>2013-03-23T13:49:51Z</time>
      </trkpt>
      <trkpt lat="45.16654" lon="4.60059">
        <ele>694.727</ele>
        <time>2013-03-23T13:49:55Z</time>
      </trkpt>
      <trkpt lat="45.16654" lon="4.60059">
        <ele>697.183</ele>
        <time>2013-03-23T13:50:01Z</time>
      </trkpt>
      <trkpt lat="45.16654" lon="4.60059">
        <ele>707.225</ele>
        <time>2013-03-23T13:50:24Z</time>
      </trkpt>
      <trkpt lat="45.16654" lon="4.60059">
        <ele>707.94</ele>
        <time>2013-03-23T13:50:27Z</time>
      </trkpt>
      <trkpt lat="45.16654" lon="4.60059">
        <ele>710.761</ele>
        <time>2013-03-23T13:50:36Z</time>
      </trkpt>
      <trkpt lat="45.16654" lon="4.60059">
        <ele>711.456</ele>
        <time>2013-03-23T13:50:50Z</time>
      </trkpt>
      <trkpt lat="45.16674" lon="4.59997">
        <ele>711.645</ele>
        <time>2013-03-23T13:51:10Z</time>
      </trkpt>
      <trkpt lat="45.16683" lon="4.59997">
        <ele>712.997</ele>
        <time>2013-03-23T13:51:17Z</time>
      </trkpt>
      <trkpt lat="45.16696" lon="4.60008">
        <ele>715.578</ele>
        <time>2013-03-23T13:51:29Z</time>
      </trkpt>
      <trkpt lat="45.1671" lon="4.60009">
        <ele>720.484</ele>
        <time>2013-03-23T13:51:42Z</time>
      </trkpt>
      <trkpt lat="45.16713" lon="4.60008">
        <ele>721.951</ele>
        <time>2013-03-23T13:51:53Z</time>
      </trkpt>
      <trkpt lat="45.16722" lon="4.60001">
        <ele>725.147</ele>
        <time>2013-03-23T13:55:04Z</time>
      </trkpt>
      <trkpt lat="45.16736" lon="4.59993">
        <ele>725.535</ele>
        <time>2013-03-23T13:55:15Z</time>
      </trkpt>
      <trkpt lat="45.16744" lon="4.59983">
        <ele>727.977</ele>
        <time>2013-03-23T13:55:24Z</time>
      </trkpt>
      <trkpt lat="45.16747" lon="4.59978">
        <ele>727.536</ele>
        <time>2013-03-23T13:55:27Z</time>
      </trkpt>
      <trkpt lat="45.16759" lon="4.59958">
        <ele>731.848</ele>
        <time>2013-03-23T13:55:41Z</time>
      </trkpt>
      <trkpt lat="45.16764" lon="4.59941">
        <ele>737.881</ele>
        <time>2013-03-23T13:55:54Z</time>
      </trkpt>
      <trkpt lat="45.16764" lon="4.59941">
        <ele>737.603</ele>
        <time>2013-03-23T13:56:33Z</time>
      </trkpt>
      <trkpt lat="45.16764" lon="4.59939">
        <ele>737.884</ele>
        <time>2013-03-23T13:57:44Z</time>
      </trkpt>
      <trkpt lat="45.16775" lon="4.59924">
        <ele>741.755</ele>
        <time>2013-03-23T13:57:57Z</time>
      </trkpt>
      <trkpt lat="45.16788" lon="4.59914">
        <ele>745.261</ele>
        <time>2013-03-23T13:58:10Z</time>
      </trkpt>
      <trkpt lat="45.16796" lon="4.59902">
        <ele>745.111</ele>
        <time>2013-03-23T13:58:18Z</time>
      </trkpt>
      <trkpt lat="45.16797" lon="4.599">
        <ele>745.964</ele>
        <time>2013-03-23T13:58:20Z</time>
      </trkpt>
      <trkpt lat="45.16807" lon="4.59881">
        <ele>747.047</ele>
        <time>2013-03-23T13:58:35Z</time>
      </trkpt>
      <trkpt lat="45.16808" lon="4.59876">
        <ele>744.338</ele>
        <time>2013-03-23T13:58:47Z</time>
      </trkpt>
      <trkpt lat="45.16807" lon="4.59879">
        <ele>743.723</ele>
        <time>2013-03-23T13:58:50Z</time>
      </trkpt>
      <trkpt lat="45.16803" lon="4.59887">
        <ele>742.215</ele>
        <time>2013-03-23T13:58:55Z</time>
      </trkpt>
      <trkpt lat="45.16803" lon="4.59889">
        <ele>741.914</ele>
        <time>2013-03-23T13:59:02Z</time>
      </trkpt>
      <trkpt lat="45.16806" lon="4.59882">
        <ele>742.313</ele>
        <time>2013-03-23T13:59:18Z</time>
      </trkpt>
      <trkpt lat="45.16809" lon="4.59876">
        <ele>743.309</ele>
        <time>2013-03-23T13:59:31Z</time>
      </trkpt>
      <trkpt lat="45.16814" lon="4.59871">
        <ele>744.764</ele>
        <time>2013-03-23T13:59:34Z</time>
      </trkpt>
      <trkpt lat="45.16826" lon="4.59845">
        <ele>745.945</ele>
        <time>2013-03-23T13:59:47Z</time>
      </trkpt>
      <trkpt lat="45.16835" lon="4.59824">
        <ele>751.554</ele>
        <time>2013-03-23T13:59:56Z</time>
      </trkpt>
      <trkpt lat="45.16869" lon="4.59791">
        <ele>755.048</ele>
        <time>2013-03-23T14:00:07Z</time>
      </trkpt>
      <trkpt lat="45.16884" lon="4.59757">
        <ele>757.527</ele>
        <time>2013-03-23T14:00:16Z</time>
      </trkpt>
      <trkpt lat="45.16888" lon="4.59752">
        <ele>758.706</ele>
        <time>2013-03-23T14:00:19Z</time>
      </trkpt>
      <trkpt lat="45.16897" lon="4.5974">
        <ele>761.01</ele>
        <time>2013-03-23T14:00:28Z</time>
      </trkpt>
      <trkpt lat="45.16908" lon="4.5971">
        <ele>762.565</ele>
        <time>2013-03-23T14:00:40Z</time>
      </trkpt>
      <trkpt lat="45.16914" lon="4.59691">
        <ele>765.049</ele>
        <time>2013-03-23T14:00:54Z</time>
      </trkpt>
      <trkpt lat="45.16919" lon="4.59677">
        <ele>766.133</ele>
        <time>2013-03-23T14:01:11Z</time>
      </trkpt>
      <trkpt lat="45.16926" lon="4.59654">
        <ele>766.434</ele>
        <time>2013-03-23T14:02:18Z</time>
      </trkpt>
      <trkpt lat="45.16933" lon="4.59631">
        <ele>767.848</ele>
        <time>2013-03-23T14:02:29Z</time>
      </trkpt>
      <trkpt lat="45.1694" lon="4.59606">
        <ele>770.04</ele>
        <time>2013-03-23T14:02:43Z</time>
      </trkpt>
      <trkpt lat="45.16945" lon="4.59582">
        <ele>774.502</ele>
        <time>2013-03-23T14:03:02Z</time>
      </trkpt>
      <trkpt lat="45.16945" lon="4.59582">
        <ele>778.224</ele>
        <time>2013-03-23T14:03:22Z</time>
      </trkpt>
      <trkpt lat="45.16945" lon="4.59582">
        <ele>782.582</ele>
        <time>2013-03-23T14:03:41Z</time>
      </trkpt>
      <trkpt lat="45.16945" lon="4.59582">
        <ele>783.424</ele>
        <time>2013-03-23T14:03:54Z</time>
      </trkpt>
      <trkpt lat="45.16972" lon="4.59499">
        <ele>782.81</ele>
        <time>2013-03-23T14:05:09Z</time>
      </trkpt>
      <trkpt lat="45.17002" lon="4.59461">
        <ele>780.582</ele>
        <time>2013-03-23T14:05:20Z</time>
      </trkpt>
      <trkpt lat="45.17033" lon="4.59429">
        <ele>777.887</ele>
        <time>2013-03-23T14:05:30Z</time>
      </trkpt>
      <trkpt lat="45.17043" lon="4.59421">
        <ele>775.005</ele>
        <time>2013-03-23T14:05:35Z</time>
      </trkpt>
      <trkpt lat="45.17049" lon="4.59415">
        <ele>772.537</ele>
        <time>2013-03-23T14:05:46Z</time>
      </trkpt>
      <trkpt lat="45.17102" lon="4.59357">
        <ele>765.195</ele>
        <time>2013-03-23T14:05:53Z</time>
      </trkpt>
      <trkpt lat="45.17143" lon="4.59328">
        <ele>765.637</ele>
        <time>2013-03-23T14:06:02Z</time>
      </trkpt>
      <trkpt lat="45.17172" lon="4.59304">
        <ele>767.167</ele>
        <time>2013-03-23T14:06:15Z</time>
      </trkpt>
      <trkpt lat="45.17193" lon="4.5929">
        <ele>767.888</ele>
        <time>2013-03-23T14:06:29Z</time>
      </trkpt>
      <trkpt lat="45.17221" lon="4.59284">
        <ele>767.094</ele>
        <time>2013-03-23T14:06:44Z</time>
      </trkpt>
      <trkpt lat="45.17241" lon="4.59288">
        <ele>766.709</ele>
        <time>2013-03-23T14:06:54Z</time>
      </trkpt>
      <trkpt lat="45.17262" lon="4.59298">
        <ele>769.142</ele>
        <time>2013-03-23T14:07:05Z</time>
      </trkpt>
      <trkpt lat="45.17284" lon="4.59309">
        <ele>772.514</ele>
        <time>2013-03-23T14:07:20Z</time>
      </trkpt>
      <trkpt lat="45.17315" lon="4.59307">
        <ele>773.241</ele>
        <time>2013-03-23T14:07:40Z</time>
      </trkpt>
      <trkpt lat="45.17339" lon="4.59304">
        <ele>775.058</ele>
        <time>2013-03-23T14:07:54Z</time>
      </trkpt>
      <trkpt lat="45.17363" lon="4.59281">
        <ele>778.085</ele>
        <time>2013-03-23T14:08:05Z</time>
      </trkpt>
      <trkpt lat="45.17359" lon="4.59267">
        <ele>781.509</ele>
        <time>2013-03-23T14:08:20Z</time>
      </trkpt>
      <trkpt lat="45.17359" lon="4.59259">
        <ele>786.074</ele>
        <time>2013-03-23T14:08:38Z</time>
      </trkpt>
      <trkpt lat="45.17359" lon="4.59259">
        <ele>787.013</ele>
        <time>2013-03-23T14:08:55Z</time>
      </trkpt>
      <trkpt lat="45.17359" lon="4.59259">
        <ele>786.914</ele>
        <time>2013-03-23T14:08:59Z</time>
      </trkpt>
      <trkpt lat="45.17386" lon="4.5923">
        <ele>787.276</ele>
        <time>2013-03-23T14:09:17Z</time>
      </trkpt>
      <trkpt lat="45.17414" lon="4.59231">
        <ele>787.397</ele>
        <time>2013-03-23T14:09:33Z</time>
      </trkpt>
      <trkpt lat="45.17453" lon="4.59236">
        <ele>789.473</ele>
        <time>2013-03-23T14:09:53Z</time>
      </trkpt>
      <trkpt lat="45.17481" lon="4.59241">
        <ele>790.896</ele>
        <time>2013-03-23T14:10:09Z</time>
      </trkpt>
      <trkpt lat="45.17508" lon="4.5925">
        <ele>791.727</ele>
        <time>2013-03-23T14:10:23Z</time>
      </trkpt>
      <trkpt lat="45.17542" lon="4.59266">
        <ele>795.175</ele>
        <time>2013-03-23T14:10:40Z</time>
      </trkpt>
      <trkpt lat="45.17573" lon="4.59292">
        <ele>799.244</ele>
        <time>2013-03-23T14:10:59Z</time>
      </trkpt>
      <trkpt lat="45.17596" lon="4.59312">
        <ele>799.416</ele>
        <time>2013-03-23T14:11:14Z</time>
      </trkpt>
      <trkpt lat="45.17628" lon="4.59335">
        <ele>801.59</ele>
        <time>2013-03-23T14:11:33Z</time>
      </trkpt>
      <trkpt lat="45.17635" lon="4.59335">
        <ele>803.323</ele>
        <time>2013-03-23T14:11:37Z</time>
      </trkpt>
      <trkpt lat="45.17656" lon="4.59315">
        <ele>802.965</ele>
        <time>2013-03-23T14:11:50Z</time>
      </trkpt>
      <trkpt lat="45.17676" lon="4.59281">
        <ele>803.964</ele>
        <time>2013-03-23T14:12:06Z</time>
      </trkpt>
      <trkpt lat="45.17696" lon="4.59251">
        <ele>804.468</ele>
        <time>2013-03-23T14:12:21Z</time>
      </trkpt>
      <trkpt lat="45.17711" lon="4.59229">
        <ele>810.286</ele>
        <time>2013-03-23T14:12:33Z</time>
      </trkpt>
      <trkpt lat="45.17718" lon="4.59201">
        <ele>810.069</ele>
        <time>2013-03-23T14:12:44Z</time>
      </trkpt>
      <trkpt lat="45.17714" lon="4.5919">
        <ele>809.695</ele>
        <time>2013-03-23T14:12:48Z</time>
      </trkpt>
      <trkpt lat="45.17699" lon="4.59168">
        <ele>809.278</ele>
        <time>2013-03-23T14:12:59Z</time>
      </trkpt>
      <trkpt lat="45.17674" lon="4.5915">
        <ele>810.483</ele>
        <time>2013-03-23T14:13:12Z</time>
      </trkpt>
      <trkpt lat="45.17651" lon="4.59121">
        <ele>814.001</ele>
        <time>2013-03-23T14:13:28Z</time>
      </trkpt>
      <trkpt lat="45.17642" lon="4.59092">
        <ele>817.348</ele>
        <time>2013-03-23T14:13:40Z</time>
      </trkpt>
      <trkpt lat="45.1764" lon="4.59083">
        <ele>817.911</ele>
        <time>2013-03-23T14:13:44Z</time>
      </trkpt>
      <trkpt lat="45.1764" lon="4.59067">
        <ele>820.373</ele>
        <time>2013-03-23T14:13:52Z</time>
      </trkpt>
      <trkpt lat="45.1764" lon="4.59062">
        <ele>821.302</ele>
        <time>2013-03-23T14:13:55Z</time>
      </trkpt>
      <trkpt lat="45.17644" lon="4.59031">
        <ele>825.369</ele>
        <time>2013-03-23T14:14:08Z</time>
      </trkpt>
      <trkpt lat="45.17652" lon="4.58985">
        <ele>827.949</ele>
        <time>2013-03-23T14:14:24Z</time>
      </trkpt>
      <trkpt lat="45.17661" lon="4.58937">
        <ele>831.181</ele>
        <time>2013-03-23T14:14:40Z</time>
      </trkpt>
      <trkpt lat="45.1767" lon="4.58885">
        <ele>830.232</ele>
        <time>2013-03-23T14:14:55Z</time>
      </trkpt>
      <trkpt lat="45.17683" lon="4.58843">
        <ele>828.133</ele>
        <time>2013-03-23T14:15:09Z</time>
      </trkpt>
      <trkpt lat="45.17693" lon="4.58817">
        <ele>830.996</ele>
        <time>2013-03-23T14:15:20Z</time>
      </trkpt>
      <trkpt lat="45.17705" lon="4.58794">
        <ele>831.257</ele>
        <time>2013-03-23T14:15:30Z</time>
      </trkpt>
      <trkpt lat="45.17723" lon="4.58758">
        <ele>829.284</ele>
        <time>2013-03-23T14:15:44Z</time>
      </trkpt>
      <trkpt lat="45.17741" lon="4.5874">
        <ele>829.833</ele>
        <time>2013-03-23T14:15:56Z</time>
      </trkpt>
      <trkpt lat="45.17757" lon="4.58732">
        <ele>830.883</ele>
        <time>2013-03-23T14:16:08Z</time>
      </trkpt>
      <trkpt lat="45.17759" lon="4.58732">
        <ele>831.053</ele>
        <time>2013-03-23T14:16:09Z</time>
      </trkpt>
      <trkpt lat="45.17772" lon="4.5873">
        <ele>831.469</ele>
        <time>2013-03-23T14:16:15Z</time>
      </trkpt>
      <trkpt lat="45.17777" lon="4.5873">
        <ele>832.066</ele>
        <time>2013-03-23T14:16:18Z</time>
      </trkpt>
      <trkpt lat="45.178" lon="4.58731">
        <ele>830.94</ele>
        <time>2013-03-23T14:16:29Z</time>
      </trkpt>
      <trkpt lat="45.17819" lon="4.58727">
        <ele>831.089</ele>
        <time>2013-03-23T14:16:39Z</time>
      </trkpt>
      <trkpt lat="45.17822" lon="4.58727">
        <ele>831.171</ele>
        <time>2013-03-23T14:16:41Z</time>
      </trkpt>
      <trkpt lat="45.17844" lon="4.58722">
        <ele>830.657</ele>
        <time>2013-03-23T14:16:51Z</time>
      </trkpt>
      <trkpt lat="45.17846" lon="4.58722">
        <ele>830.754</ele>
        <time>2013-03-23T14:16:52Z</time>
      </trkpt>
      <trkpt lat="45.17876" lon="4.58713">
        <ele>831.18</ele>
        <time>2013-03-23T14:17:05Z</time>
      </trkpt>
      <trkpt lat="45.17907" lon="4.58698">
        <ele>831.759</ele>
        <time>2013-03-23T14:17:19Z</time>
      </trkpt>
      <trkpt lat="45.17912" lon="4.58684">
        <ele>830.985</ele>
        <time>2013-03-23T14:17:25Z</time>
      </trkpt>
      <trkpt lat="45.17905" lon="4.58651">
        <ele>829.765</ele>
        <time>2013-03-23T14:17:39Z</time>
      </trkpt>
      <trkpt lat="45.17901" lon="4.58645">
        <ele>829.721</ele>
        <time>2013-03-23T14:17:43Z</time>
      </trkpt>
      <trkpt lat="45.179" lon="4.58642">
        <ele>829.518</ele>
        <time>2013-03-23T14:17:45Z</time>
      </trkpt>
      <trkpt lat="45.17876" lon="4.5861">
        <ele>829.4</ele>
        <time>2013-03-23T14:18:03Z</time>
      </trkpt>
      <trkpt lat="45.17864" lon="4.58594">
        <ele>830.285</ele>
        <time>2013-03-23T14:18:13Z</time>
      </trkpt>
      <trkpt lat="45.17861" lon="4.5859">
        <ele>830.229</ele>
        <time>2013-03-23T14:18:16Z</time>
      </trkpt>
      <trkpt lat="45.17856" lon="4.58583">
        <ele>830.506</ele>
        <time>2013-03-23T14:18:20Z</time>
      </trkpt>
      <trkpt lat="45.17849" lon="4.58575">
        <ele>830.199</ele>
        <time>2013-03-23T14:18:26Z</time>
      </trkpt>
      <trkpt lat="45.17834" lon="4.58556">
        <ele>831.389</ele>
        <time>2013-03-23T14:18:38Z</time>
      </trkpt>
      <trkpt lat="45.1783" lon="4.58551">
        <ele>832.074</ele>
        <time>2013-03-23T14:18:41Z</time>
      </trkpt>
      <trkpt lat="45.17812" lon="4.58528">
        <ele>833.525</ele>
        <time>2013-03-23T14:18:55Z</time>
      </trkpt>
      <trkpt lat="45.17795" lon="4.58507">
        <ele>834.956</ele>
        <time>2013-03-23T14:19:05Z</time>
      </trkpt>
      <trkpt lat="45.17761" lon="4.58476">
        <ele>834.99</ele>
        <time>2013-03-23T14:19:22Z</time>
      </trkpt>
      <trkpt lat="45.17729" lon="4.5845">
        <ele>834.595</ele>
        <time>2013-03-23T14:19:40Z</time>
      </trkpt>
      <trkpt lat="45.17708" lon="4.58414">
        <ele>833.22</ele>
        <time>2013-03-23T14:19:56Z</time>
      </trkpt>
      <trkpt lat="45.17701" lon="4.58371">
        <ele>833.773</ele>
        <time>2013-03-23T14:20:12Z</time>
      </trkpt>
      <trkpt lat="45.17696" lon="4.58332">
        <ele>833.476</ele>
        <time>2013-03-23T14:20:26Z</time>
      </trkpt>
      <trkpt lat="45.17689" lon="4.58279">
        <ele>834.5</ele>
        <time>2013-03-23T14:20:44Z</time>
      </trkpt>
      <trkpt lat="45.17685" lon="4.58247">
        <ele>833.27</ele>
        <time>2013-03-23T14:20:57Z</time>
      </trkpt>
      <trkpt lat="45.17682" lon="4.58216">
        <ele>834.017</ele>
        <time>2013-03-23T14:21:10Z</time>
      </trkpt>
      <trkpt lat="45.17686" lon="4.58178">
        <ele>837.655</ele>
        <time>2013-03-23T14:21:25Z</time>
      </trkpt>
      <trkpt lat="45.17694" lon="4.58139">
        <ele>838.962</ele>
        <time>2013-03-23T14:21:39Z</time>
      </trkpt>
      <trkpt lat="45.17699" lon="4.58121">
        <ele>838.329</ele>
        <time>2013-03-23T14:21:46Z</time>
      </trkpt>
      <trkpt lat="45.17709" lon="4.58088">
        <ele>840.148</ele>
        <time>2013-03-23T14:21:59Z</time>
      </trkpt>
      <trkpt lat="45.17711" lon="4.58083">
        <ele>839.39</ele>
        <time>2013-03-23T14:22:08Z</time>
      </trkpt>
      <trkpt lat="45.17716" lon="4.58067">
        <ele>843.696</ele>
        <time>2013-03-23T14:30:52Z</time>
      </trkpt>
      <trkpt lat="45.17723" lon="4.58046">
        <ele>844.219</ele>
        <time>2013-03-23T14:31:00Z</time>
      </trkpt>
      <trkpt lat="45.17731" lon="4.58018">
        <ele>844.782</ele>
        <time>2013-03-23T14:31:11Z</time>
      </trkpt>
      <trkpt lat="45.17743" lon="4.57976">
        <ele>843.743</ele>
        <time>2013-03-23T14:31:27Z</time>
      </trkpt>
      <trkpt lat="45.17756" lon="4.57941">
        <ele>843.693</ele>
        <time>2013-03-23T14:31:40Z</time>
      </trkpt>
      <trkpt lat="45.17764" lon="4.57902">
        <ele>844.272</ele>
        <time>2013-03-23T14:31:53Z</time>
      </trkpt>
      <trkpt lat="45.17781" lon="4.57848">
        <ele>843.631</ele>
        <time>2013-03-23T14:32:13Z</time>
      </trkpt>
      <trkpt lat="45.17792" lon="4.57811">
        <ele>843.994</ele>
        <time>2013-03-23T14:32:30Z</time>
      </trkpt>
      <trkpt lat="45.17805" lon="4.57772">
        <ele>844.026</ele>
        <time>2013-03-23T14:32:46Z</time>
      </trkpt>
      <trkpt lat="45.17817" lon="4.57721">
        <ele>846.443</ele>
        <time>2013-03-23T14:33:05Z</time>
      </trkpt>
      <trkpt lat="45.17828" lon="4.57677">
        <ele>847.5</ele>
        <time>2013-03-23T14:33:23Z</time>
      </trkpt>
      <trkpt lat="45.17837" lon="4.57638">
        <ele>846.47</ele>
        <time>2013-03-23T14:33:38Z</time>
      </trkpt>
      <trkpt lat="45.17848" lon="4.57603">
        <ele>846.187</ele>
        <time>2013-03-23T14:33:52Z</time>
      </trkpt>
      <trkpt lat="45.17862" lon="4.57559">
        <ele>847.408</ele>
        <time>2013-03-23T14:34:09Z</time>
      </trkpt>
      <trkpt lat="45.17875" lon="4.57524">
        <ele>847.822</ele>
        <time>2013-03-23T14:34:23Z</time>
      </trkpt>
      <trkpt lat="45.17887" lon="4.57491">
        <ele>848.398</ele>
        <time>2013-03-23T14:34:36Z</time>
      </trkpt>
      <trkpt lat="45.17902" lon="4.57447">
        <ele>848.385</ele>
        <time>2013-03-23T14:34:46Z</time>
      </trkpt>
      <trkpt lat="45.17915" lon="4.57411">
        <ele>847.216</ele>
        <time>2013-03-23T14:34:52Z</time>
      </trkpt>
      <trkpt lat="45.1795" lon="4.57344">
        <ele>847.918</ele>
        <time>2013-03-23T14:35:04Z</time>
      </trkpt>
      <trkpt lat="45.17968" lon="4.573">
        <ele>849.531</ele>
        <time>2013-03-23T14:35:16Z</time>
      </trkpt>
      <trkpt lat="45.17982" lon="4.57243">
        <ele>849.92</ele>
        <time>2013-03-23T14:35:33Z</time>
      </trkpt>
      <trkpt lat="45.17995" lon="4.5718">
        <ele>848.927</ele>
        <time>2013-03-23T14:35:49Z</time>
      </trkpt>
      <trkpt lat="45.17999" lon="4.57123">
        <ele>849.746</ele>
        <time>2013-03-23T14:36:05Z</time>
      </trkpt>
      <trkpt lat="45.17981" lon="4.57095">
        <ele>851.764</ele>
        <time>2013-03-23T14:36:19Z</time>
      </trkpt>
      <trkpt lat="45.17964" lon="4.57065">
        <ele>854.018</ele>
        <time>2013-03-23T14:36:38Z</time>
      </trkpt>
      <trkpt lat="45.17949" lon="4.57062">
        <ele>854.497</ele>
        <time>2013-03-23T14:36:51Z</time>
      </trkpt>
      <trkpt lat="45.17933" lon="4.57083">
        <ele>856.007</ele>
        <time>2013-03-23T14:37:08Z</time>
      </trkpt>
      <trkpt lat="45.17931" lon="4.57085">
        <ele>858.103</ele>
        <time>2013-03-23T14:37:27Z</time>
      </trkpt>
      <trkpt lat="45.17931" lon="4.57085">
        <ele>859.48</ele>
        <time>2013-03-23T14:37:55Z</time>
      </trkpt>
      <trkpt lat="45.17881" lon="4.57135">
        <ele>860.822</ele>
        <time>2013-03-23T14:38:11Z</time>
      </trkpt>
      <trkpt lat="45.17867" lon="4.57149">
        <ele>862.398</ele>
        <time>2013-03-23T14:38:32Z</time>
      </trkpt>
      <trkpt lat="45.17867" lon="4.57149">
        <ele>864.12</ele>
        <time>2013-03-23T14:38:52Z</time>
      </trkpt>
      <trkpt lat="45.17867" lon="4.57149">
        <ele>866.584</ele>
        <time>2013-03-23T14:39:13Z</time>
      </trkpt>
      <trkpt lat="45.17804" lon="4.57174">
        <ele>869.186</ele>
        <time>2013-03-23T14:39:28Z</time>
      </trkpt>
      <trkpt lat="45.17803" lon="4.57174">
        <ele>870.514</ele>
        <time>2013-03-23T14:39:35Z</time>
      </trkpt>
      <trkpt lat="45.17775" lon="4.5719">
        <ele>871.486</ele>
        <time>2013-03-23T14:39:51Z</time>
      </trkpt>
      <trkpt lat="45.17754" lon="4.572">
        <ele>871.87</ele>
        <time>2013-03-23T14:40:07Z</time>
      </trkpt>
      <trkpt lat="45.17737" lon="4.57208">
        <ele>871.582</ele>
        <time>2013-03-23T14:40:22Z</time>
      </trkpt>
      <trkpt lat="45.17733" lon="4.5721">
        <ele>871.995</ele>
        <time>2013-03-23T14:40:26Z</time>
      </trkpt>
      <trkpt lat="45.17703" lon="4.57223">
        <ele>872.787</ele>
        <time>2013-03-23T14:40:48Z</time>
      </trkpt>
      <trkpt lat="45.17673" lon="4.57239">
        <ele>873.56</ele>
        <time>2013-03-23T14:41:07Z</time>
      </trkpt>
      <trkpt lat="45.17669" lon="4.57242">
        <ele>874.106</ele>
        <time>2013-03-23T14:41:10Z</time>
      </trkpt>
      <trkpt lat="45.17665" lon="4.57235">
        <ele>874.844</ele>
        <time>2013-03-23T14:41:15Z</time>
      </trkpt>
      <trkpt lat="45.17683" lon="4.57222">
        <ele>876.688</ele>
        <time>2013-03-23T14:41:28Z</time>
      </trkpt>
      <trkpt lat="45.1769" lon="4.57218">
        <ele>877.271</ele>
        <time>2013-03-23T14:41:35Z</time>
      </trkpt>
      <trkpt lat="45.17695" lon="4.57216">
        <ele>876.634</ele>
        <time>2013-03-23T14:41:38Z</time>
      </trkpt>
      <trkpt lat="45.17699" lon="4.57213">
        <ele>877.338</ele>
        <time>2013-03-23T14:41:42Z</time>
      </trkpt>
      <trkpt lat="45.17714" lon="4.572">
        <ele>880.189</ele>
        <time>2013-03-23T14:41:56Z</time>
      </trkpt>
      <trkpt lat="45.17724" lon="4.57191">
        <ele>881.288</ele>
        <time>2013-03-23T14:42:12Z</time>
      </trkpt>
      <trkpt lat="45.17744" lon="4.57172">
        <ele>884.437</ele>
        <time>2013-03-23T14:42:37Z</time>
      </trkpt>
      <trkpt lat="45.17774" lon="4.57143">
        <ele>886.133</ele>
        <time>2013-03-23T14:42:57Z</time>
      </trkpt>
      <trkpt lat="45.17778" lon="4.5714">
        <ele>885.805</ele>
        <time>2013-03-23T14:43:01Z</time>
      </trkpt>
      <trkpt lat="45.17795" lon="4.57124">
        <ele>885.077</ele>
        <time>2013-03-23T14:43:17Z</time>
      </trkpt>
      <trkpt lat="45.17817" lon="4.57101">
        <ele>886.493</ele>
        <time>2013-03-23T14:43:34Z</time>
      </trkpt>
      <trkpt lat="45.17838" lon="4.57075">
        <ele>886.938</ele>
        <time>2013-03-23T14:43:49Z</time>
      </trkpt>
      <trkpt lat="45.1785" lon="4.57058">
        <ele>887.582</ele>
        <time>2013-03-23T14:43:59Z</time>
      </trkpt>
      <trkpt lat="45.1785" lon="4.57057">
        <ele>888.534</ele>
        <time>2013-03-23T14:44:02Z</time>
      </trkpt>
      <trkpt lat="45.17855" lon="4.57048">
        <ele>889.457</ele>
        <time>2013-03-23T14:44:07Z</time>
      </trkpt>
      <trkpt lat="45.1787" lon="4.57006">
        <ele>890.619</ele>
        <time>2013-03-23T14:44:27Z</time>
      </trkpt>
      <trkpt lat="45.17877" lon="4.56976">
        <ele>892.368</ele>
        <time>2013-03-23T14:44:43Z</time>
      </trkpt>
      <trkpt lat="45.1788" lon="4.56966">
        <ele>891.988</ele>
        <time>2013-03-23T14:44:48Z</time>
      </trkpt>
      <trkpt lat="45.1788" lon="4.56963">
        <ele>891.595</ele>
        <time>2013-03-23T14:44:50Z</time>
      </trkpt>
      <trkpt lat="45.17885" lon="4.56942">
        <ele>891.502</ele>
        <time>2013-03-23T14:45:01Z</time>
      </trkpt>
      <trkpt lat="45.17896" lon="4.56897">
        <ele>890.919</ele>
        <time>2013-03-23T14:45:19Z</time>
      </trkpt>
      <trkpt lat="45.17902" lon="4.56836">
        <ele>890.742</ele>
        <time>2013-03-23T14:45:39Z</time>
      </trkpt>
      <trkpt lat="45.17902" lon="4.56829">
        <ele>890.434</ele>
        <time>2013-03-23T14:45:41Z</time>
      </trkpt>
      <trkpt lat="45.17917" lon="4.56813">
        <ele>889.463</ele>
        <time>2013-03-23T14:45:48Z</time>
      </trkpt>
      <trkpt lat="45.17922" lon="4.56815">
        <ele>889.467</ele>
        <time>2013-03-23T14:45:50Z</time>
      </trkpt>
      <trkpt lat="45.17933" lon="4.56827">
        <ele>891.547</ele>
        <time>2013-03-23T14:45:57Z</time>
      </trkpt>
      <trkpt lat="45.17947" lon="4.56851">
        <ele>893.848</ele>
        <time>2013-03-23T14:46:07Z</time>
      </trkpt>
      <trkpt lat="45.17958" lon="4.56876">
        <ele>893.692</ele>
        <time>2013-03-23T14:46:16Z</time>
      </trkpt>
      <trkpt lat="45.17963" lon="4.56887">
        <ele>893.906</ele>
        <time>2013-03-23T14:46:20Z</time>
      </trkpt>
      <trkpt lat="45.17967" lon="4.56898">
        <ele>893.247</ele>
        <time>2013-03-23T14:46:24Z</time>
      </trkpt>
      <trkpt lat="45.17984" lon="4.5693">
        <ele>895.315</ele>
        <time>2013-03-23T14:46:37Z</time>
      </trkpt>
      <trkpt lat="45.18004" lon="4.56941">
        <ele>895.708</ele>
        <time>2013-03-23T14:46:49Z</time>
      </trkpt>
      <trkpt lat="45.1803" lon="4.56936">
        <ele>896.825</ele>
        <time>2013-03-23T14:47:03Z</time>
      </trkpt>
      <trkpt lat="45.18062" lon="4.56921">
        <ele>897.413</ele>
        <time>2013-03-23T14:47:18Z</time>
      </trkpt>
      <trkpt lat="45.18098" lon="4.56913">
        <ele>898.277</ele>
        <time>2013-03-23T14:47:34Z</time>
      </trkpt>
      <trkpt lat="45.18126" lon="4.56942">
        <ele>898.545</ele>
        <time>2013-03-23T14:47:48Z</time>
      </trkpt>
      <trkpt lat="45.18146" lon="4.56977">
        <ele>898.851</ele>
        <time>2013-03-23T14:48:02Z</time>
      </trkpt>
      <trkpt lat="45.18164" lon="4.57011">
        <ele>898.937</ele>
        <time>2013-03-23T14:48:16Z</time>
      </trkpt>
      <trkpt lat="45.18182" lon="4.57047">
        <ele>899.706</ele>
        <time>2013-03-23T14:48:31Z</time>
      </trkpt>
      <trkpt lat="45.18197" lon="4.57079">
        <ele>900.948</ele>
        <time>2013-03-23T14:48:45Z</time>
      </trkpt>
      <trkpt lat="45.18211" lon="4.5711">
        <ele>900.959</ele>
        <time>2013-03-23T14:48:58Z</time>
      </trkpt>
      <trkpt lat="45.18222" lon="4.57149">
        <ele>902.986</ele>
        <time>2013-03-23T14:49:15Z</time>
      </trkpt>
      <trkpt lat="45.18222" lon="4.57151">
        <ele>902.596</ele>
        <time>2013-03-23T14:49:16Z</time>
      </trkpt>
      <trkpt lat="45.18225" lon="4.57162">
        <ele>902.653</ele>
        <time>2013-03-23T14:49:21Z</time>
      </trkpt>
      <trkpt lat="45.18232" lon="4.57191">
        <ele>903.674</ele>
        <time>2013-03-23T14:49:33Z</time>
      </trkpt>
      <trkpt lat="45.18238" lon="4.57222">
        <ele>905.304</ele>
        <time>2013-03-23T14:49:46Z</time>
      </trkpt>
      <trkpt lat="45.18243" lon="4.57248">
        <ele>905.679</ele>
        <time>2013-03-23T14:49:58Z</time>
      </trkpt>
      <trkpt lat="45.18239" lon="4.5728">
        <ele>908.806</ele>
        <time>2013-03-23T14:50:13Z</time>
      </trkpt>
      <trkpt lat="45.1824" lon="4.57305">
        <ele>913.954</ele>
        <time>2013-03-23T14:50:25Z</time>
      </trkpt>
      <trkpt lat="45.1824" lon="4.57305">
        <ele>914.422</ele>
        <time>2013-03-23T14:50:33Z</time>
      </trkpt>
      <trkpt lat="45.1824" lon="4.57305">
        <ele>914.619</ele>
        <time>2013-03-23T14:51:17Z</time>
      </trkpt>
      <trkpt lat="45.1824" lon="4.57305">
        <ele>914.676</ele>
        <time>2013-03-23T14:51:41Z</time>
      </trkpt>
      <trkpt lat="45.1825" lon="4.57313">
        <ele>917.801</ele>
        <time>2013-03-23T14:51:54Z</time>
      </trkpt>
      <trkpt lat="45.18259" lon="4.57301">
        <ele>919.864</ele>
        <time>2013-03-23T14:52:04Z</time>
      </trkpt>
      <trkpt lat="45.18266" lon="4.57281">
        <ele>920.039</ele>
        <time>2013-03-23T14:52:16Z</time>
      </trkpt>
      <trkpt lat="45.18268" lon="4.5727">
        <ele>920.31</ele>
        <time>2013-03-23T14:52:20Z</time>
      </trkpt>
      <trkpt lat="45.18269" lon="4.57258">
        <ele>919.955</ele>
        <time>2013-03-23T14:52:30Z</time>
      </trkpt>
      <trkpt lat="45.18269" lon="4.57252">
        <ele>920.098</ele>
        <time>2013-03-23T14:52:35Z</time>
      </trkpt>
      <trkpt lat="45.1827" lon="4.57236">
        <ele>920.621</ele>
        <time>2013-03-23T14:52:44Z</time>
      </trkpt>
      <trkpt lat="45.1827" lon="4.57213">
        <ele>923.852</ele>
        <time>2013-03-23T14:53:00Z</time>
      </trkpt>
      <trkpt lat="45.18269" lon="4.57195">
        <ele>924.745</ele>
        <time>2013-03-23T14:53:04Z</time>
      </trkpt>
      <trkpt lat="45.18269" lon="4.57169">
        <ele>925.678</ele>
        <time>2013-03-23T14:53:20Z</time>
      </trkpt>
      <trkpt lat="45.18269" lon="4.57169">
        <ele>926.38</ele>
        <time>2013-03-23T14:53:26Z</time>
      </trkpt>
      <trkpt lat="45.18268" lon="4.57141">
        <ele>926.386</ele>
        <time>2013-03-23T14:53:36Z</time>
      </trkpt>
      <trkpt lat="45.18267" lon="4.57132">
        <ele>926.8</ele>
        <time>2013-03-23T14:53:39Z</time>
      </trkpt>
      <trkpt lat="45.18267" lon="4.57132">
        <ele>928.207</ele>
        <time>2013-03-23T14:53:42Z</time>
      </trkpt>
      <trkpt lat="45.18267" lon="4.57132">
        <ele>928.128</ele>
        <time>2013-03-23T14:53:49Z</time>
      </trkpt>
      <trkpt lat="45.18266" lon="4.57102">
        <ele>931.441</ele>
        <time>2013-03-23T14:53:59Z</time>
      </trkpt>
      <trkpt lat="45.18265" lon="4.57091">
        <ele>932.52</ele>
        <time>2013-03-23T14:54:05Z</time>
      </trkpt>
      <trkpt lat="45.18265" lon="4.57091">
        <ele>934.217</ele>
        <time>2013-03-23T14:54:14Z</time>
      </trkpt>
      <trkpt lat="45.18265" lon="4.57091">
        <ele>934.915</ele>
        <time>2013-03-23T14:54:26Z</time>
      </trkpt>
      <trkpt lat="45.1826" lon="4.57051">
        <ele>937.017</ele>
        <time>2013-03-23T14:54:37Z</time>
      </trkpt>
      <trkpt lat="45.18254" lon="4.5703">
        <ele>937.649</ele>
        <time>2013-03-23T14:54:50Z</time>
      </trkpt>
      <trkpt lat="45.18251" lon="4.57016">
        <ele>938.315</ele>
        <time>2013-03-23T14:54:57Z</time>
      </trkpt>
      <trkpt lat="45.18247" lon="4.57004">
        <ele>939.188</ele>
        <time>2013-03-23T14:55:05Z</time>
      </trkpt>
      <trkpt lat="45.18246" lon="4.56999">
        <ele>939.709</ele>
        <time>2013-03-23T14:55:07Z</time>
      </trkpt>
      <trkpt lat="45.18246" lon="4.56994">
        <ele>939.61</ele>
        <time>2013-03-23T14:55:11Z</time>
      </trkpt>
      <trkpt lat="45.18242" lon="4.56983">
        <ele>939.452</ele>
        <time>2013-03-23T14:55:18Z</time>
      </trkpt>
      <trkpt lat="45.18231" lon="4.56955">
        <ele>941.341</ele>
        <time>2013-03-23T14:55:34Z</time>
      </trkpt>
      <trkpt lat="45.1823" lon="4.56953">
        <ele>941.592</ele>
        <time>2013-03-23T14:55:36Z</time>
      </trkpt>
      <trkpt lat="45.18224" lon="4.56942">
        <ele>941.72</ele>
        <time>2013-03-23T14:55:42Z</time>
      </trkpt>
      <trkpt lat="45.18224" lon="4.56939">
        <ele>941.981</ele>
        <time>2013-03-23T14:55:44Z</time>
      </trkpt>
      <trkpt lat="45.18223" lon="4.56936">
        <ele>942.167</ele>
        <time>2013-03-23T14:55:46Z</time>
      </trkpt>
      <trkpt lat="45.18222" lon="4.56928">
        <ele>942.557</ele>
        <time>2013-03-23T14:55:50Z</time>
      </trkpt>
      <trkpt lat="45.18226" lon="4.56926">
        <ele>943.733</ele>
        <time>2013-03-23T14:55:58Z</time>
      </trkpt>
      <trkpt lat="45.18225" lon="4.56928">
        <ele>943.135</ele>
        <time>2013-03-23T14:56:38Z</time>
      </trkpt>
      <trkpt lat="45.18224" lon="4.56927">
        <ele>942.764</ele>
        <time>2013-03-23T14:56:55Z</time>
      </trkpt>
      <trkpt lat="45.18232" lon="4.56938">
        <ele>942.16</ele>
        <time>2013-03-23T14:57:05Z</time>
      </trkpt>
      <trkpt lat="45.18235" lon="4.56941">
        <ele>942.714</ele>
        <time>2013-03-23T14:57:08Z</time>
      </trkpt>
      <trkpt lat="45.18239" lon="4.56947">
        <ele>943.922</ele>
        <time>2013-03-23T14:57:15Z</time>
      </trkpt>
      <trkpt lat="45.18241" lon="4.56951">
        <ele>943.468</ele>
        <time>2013-03-23T14:57:19Z</time>
      </trkpt>
      <trkpt lat="45.18251" lon="4.56961">
        <ele>945.021</ele>
        <time>2013-03-23T14:57:30Z</time>
      </trkpt>
      <trkpt lat="45.18255" lon="4.56967">
        <ele>945.4</ele>
        <time>2013-03-23T14:57:35Z</time>
      </trkpt>
      <trkpt lat="45.18266" lon="4.56982">
        <ele>947.59</ele>
        <time>2013-03-23T14:57:46Z</time>
      </trkpt>
      <trkpt lat="45.18269" lon="4.56985">
        <ele>947.845</ele>
        <time>2013-03-23T14:57:49Z</time>
      </trkpt>
      <trkpt lat="45.18272" lon="4.56994">
        <ele>948.679</ele>
        <time>2013-03-23T14:57:55Z</time>
      </trkpt>
      <trkpt lat="45.18286" lon="4.57011">
        <ele>949.201</ele>
        <time>2013-03-23T14:58:09Z</time>
      </trkpt>
      <trkpt lat="45.1829" lon="4.57019">
        <ele>950.691</ele>
        <time>2013-03-23T14:58:15Z</time>
      </trkpt>
      <trkpt lat="45.18302" lon="4.57044">
        <ele>953.368</ele>
        <time>2013-03-23T14:58:35Z</time>
      </trkpt>
      <trkpt lat="45.18312" lon="4.57064">
        <ele>954.469</ele>
        <time>2013-03-23T14:58:51Z</time>
      </trkpt>
      <trkpt lat="45.18322" lon="4.57086">
        <ele>956.688</ele>
        <time>2013-03-23T14:59:10Z</time>
      </trkpt>
      <trkpt lat="45.1833" lon="4.57099">
        <ele>957.259</ele>
        <time>2013-03-23T14:59:24Z</time>
      </trkpt>
      <trkpt lat="45.1834" lon="4.57121">
        <ele>959.42</ele>
        <time>2013-03-23T14:59:42Z</time>
      </trkpt>
      <trkpt lat="45.18348" lon="4.5714">
        <ele>962.381</ele>
        <time>2013-03-23T14:59:56Z</time>
      </trkpt>
      <trkpt lat="45.18359" lon="4.57165">
        <ele>963.234</ele>
        <time>2013-03-23T15:00:15Z</time>
      </trkpt>
      <trkpt lat="45.18372" lon="4.57193">
        <ele>966.454</ele>
        <time>2013-03-23T15:00:38Z</time>
      </trkpt>
      <trkpt lat="45.1838" lon="4.57216">
        <ele>967.787</ele>
        <time>2013-03-23T15:00:54Z</time>
      </trkpt>
      <trkpt lat="45.18387" lon="4.57236">
        <ele>969.476</ele>
        <time>2013-03-23T15:01:09Z</time>
      </trkpt>
      <trkpt lat="45.18391" lon="4.5726">
        <ele>970.131</ele>
        <time>2013-03-23T15:01:23Z</time>
      </trkpt>
      <trkpt lat="45.18393" lon="4.57268">
        <ele>970.604</ele>
        <time>2013-03-23T15:01:28Z</time>
      </trkpt>
      <trkpt lat="45.18393" lon="4.57274">
        <ele>970.583</ele>
        <time>2013-03-23T15:01:32Z</time>
      </trkpt>
      <trkpt lat="45.18397" lon="4.5729">
        <ele>971.861</ele>
        <time>2013-03-23T15:01:43Z</time>
      </trkpt>
      <trkpt lat="45.18399" lon="4.57298">
        <ele>972.611</ele>
        <time>2013-03-23T15:01:49Z</time>
      </trkpt>
      <trkpt lat="45.18407" lon="4.57325">
        <ele>974.229</ele>
        <time>2013-03-23T15:02:07Z</time>
      </trkpt>
      <trkpt lat="45.18409" lon="4.57335">
        <ele>975.826</ele>
        <time>2013-03-23T15:02:13Z</time>
      </trkpt>
      <trkpt lat="45.18411" lon="4.57339">
        <ele>977.281</ele>
        <time>2013-03-23T15:02:16Z</time>
      </trkpt>
      <trkpt lat="45.18412" lon="4.57341">
        <ele>977.652</ele>
        <time>2013-03-23T15:02:18Z</time>
      </trkpt>
      <trkpt lat="45.1842" lon="4.57366">
        <ele>978.204</ele>
        <time>2013-03-23T15:02:36Z</time>
      </trkpt>
      <trkpt lat="45.18427" lon="4.57388">
        <ele>978.292</ele>
        <time>2013-03-23T15:02:51Z</time>
      </trkpt>
      <trkpt lat="45.18432" lon="4.57411">
        <ele>978.241</ele>
        <time>2013-03-23T15:03:06Z</time>
      </trkpt>
      <trkpt lat="45.18434" lon="4.57416">
        <ele>978.53</ele>
        <time>2013-03-23T15:03:09Z</time>
      </trkpt>
      <trkpt lat="45.18436" lon="4.57425">
        <ele>977.412</ele>
        <time>2013-03-23T15:03:15Z</time>
      </trkpt>
      <trkpt lat="45.18437" lon="4.57434">
        <ele>980.668</ele>
        <time>2013-03-23T15:03:20Z</time>
      </trkpt>
      <trkpt lat="45.18438" lon="4.57462">
        <ele>983.092</ele>
        <time>2013-03-23T15:03:36Z</time>
      </trkpt>
      <trkpt lat="45.18435" lon="4.5747">
        <ele>984.443</ele>
        <time>2013-03-23T15:03:40Z</time>
      </trkpt>
      <trkpt lat="45.18432" lon="4.57478">
        <ele>985.505</ele>
        <time>2013-03-23T15:03:45Z</time>
      </trkpt>
      <trkpt lat="45.18432" lon="4.57481">
        <ele>985.767</ele>
        <time>2013-03-23T15:03:47Z</time>
      </trkpt>
      <trkpt lat="45.18434" lon="4.57488">
        <ele>986.177</ele>
        <time>2013-03-23T15:03:51Z</time>
      </trkpt>
      <trkpt lat="45.18442" lon="4.57483">
        <ele>987.48</ele>
        <time>2013-03-23T15:03:59Z</time>
      </trkpt>
      <trkpt lat="45.18443" lon="4.57474">
        <ele>988.044</ele>
        <time>2013-03-23T15:04:03Z</time>
      </trkpt>
      <trkpt lat="45.18444" lon="4.57472">
        <ele>989.044</ele>
        <time>2013-03-23T15:04:13Z</time>
      </trkpt>
      <trkpt lat="45.18444" lon="4.57471">
        <ele>990.473</ele>
        <time>2013-03-23T15:06:08Z</time>
      </trkpt>
      <trkpt lat="45.18448" lon="4.57456">
        <ele>991.777</ele>
        <time>2013-03-23T15:06:18Z</time>
      </trkpt>
      <trkpt lat="45.18459" lon="4.57429">
        <ele>993.431</ele>
        <time>2013-03-23T15:06:33Z</time>
      </trkpt>
      <trkpt lat="45.1846" lon="4.57425">
        <ele>994.627</ele>
        <time>2013-03-23T15:06:36Z</time>
      </trkpt>
      <trkpt lat="45.18462" lon="4.57411">
        <ele>996.935</ele>
        <time>2013-03-23T15:06:44Z</time>
      </trkpt>
      <trkpt lat="45.18462" lon="4.57382">
        <ele>999.584</ele>
        <time>2013-03-23T15:07:00Z</time>
      </trkpt>
      <trkpt lat="45.1846" lon="4.57354">
        <ele>1001.159</ele>
        <time>2013-03-23T15:07:17Z</time>
      </trkpt>
      <trkpt lat="45.18463" lon="4.57328">
        <ele>1001.978</ele>
        <time>2013-03-23T15:07:36Z</time>
      </trkpt>
      <trkpt lat="45.18468" lon="4.57305">
        <ele>1002.211</ele>
        <time>2013-03-23T15:07:52Z</time>
      </trkpt>
      <trkpt lat="45.1847" lon="4.5729">
        <ele>1004.066</ele>
        <time>2013-03-23T15:08:02Z</time>
      </trkpt>
      <trkpt lat="45.18471" lon="4.5728">
        <ele>1005.058</ele>
        <time>2013-03-23T15:08:08Z</time>
      </trkpt>
      <trkpt lat="45.18478" lon="4.57259">
        <ele>1007.134</ele>
        <time>2013-03-23T15:08:24Z</time>
      </trkpt>
      <trkpt lat="45.18479" lon="4.57254">
        <ele>1006.773</ele>
        <time>2013-03-23T15:08:27Z</time>
      </trkpt>
      <trkpt lat="45.18481" lon="4.57247">
        <ele>1007.127</ele>
        <time>2013-03-23T15:08:32Z</time>
      </trkpt>
      <trkpt lat="45.18484" lon="4.57237">
        <ele>1008.174</ele>
        <time>2013-03-23T15:08:39Z</time>
      </trkpt>
      <trkpt lat="45.18489" lon="4.57224">
        <ele>1007.924</ele>
        <time>2013-03-23T15:08:49Z</time>
      </trkpt>
      <trkpt lat="45.18497" lon="4.57199">
        <ele>1009.808</ele>
        <time>2013-03-23T15:09:05Z</time>
      </trkpt>
      <trkpt lat="45.18506" lon="4.57174">
        <ele>1012.546</ele>
        <time>2013-03-23T15:09:21Z</time>
      </trkpt>
      <trkpt lat="45.18516" lon="4.57164">
        <ele>1014.957</ele>
        <time>2013-03-23T15:09:34Z</time>
      </trkpt>
      <trkpt lat="45.18509" lon="4.57131">
        <ele>1017.191</ele>
        <time>2013-03-23T15:09:50Z</time>
      </trkpt>
      <trkpt lat="45.18506" lon="4.57128">
        <ele>1018.171</ele>
        <time>2013-03-23T15:09:55Z</time>
      </trkpt>
      <trkpt lat="45.185" lon="4.57126">
        <ele>1018.454</ele>
        <time>2013-03-23T15:10:00Z</time>
      </trkpt>
      <trkpt lat="45.18494" lon="4.57115">
        <ele>1018.409</ele>
        <time>2013-03-23T15:10:07Z</time>
      </trkpt>
      <trkpt lat="45.18494" lon="4.5711">
        <ele>1019.585</ele>
        <time>2013-03-23T15:10:15Z</time>
      </trkpt>
      <trkpt lat="45.18499" lon="4.57104">
        <ele>1020.334</ele>
        <time>2013-03-23T15:10:23Z</time>
      </trkpt>
      <trkpt lat="45.185" lon="4.57098">
        <ele>1021.436</ele>
        <time>2013-03-23T15:10:27Z</time>
      </trkpt>
      <trkpt lat="45.18497" lon="4.57093">
        <ele>1020.792</ele>
        <time>2013-03-23T15:10:36Z</time>
      </trkpt>
      <trkpt lat="45.18498" lon="4.57094">
        <ele>1020.897</ele>
        <time>2013-03-23T15:10:38Z</time>
      </trkpt>
      <trkpt lat="45.18504" lon="4.57098">
        <ele>1019.559</ele>
        <time>2013-03-23T15:10:49Z</time>
      </trkpt>
      <trkpt lat="45.18504" lon="4.57103">
        <ele>1018.458</ele>
        <time>2013-03-23T15:11:26Z</time>
      </trkpt>
      <trkpt lat="45.18507" lon="4.57105">
        <ele>1019.159</ele>
        <time>2013-03-23T15:11:30Z</time>
      </trkpt>
      <trkpt lat="45.18513" lon="4.57101">
        <ele>1020.491</ele>
        <time>2013-03-23T15:11:39Z</time>
      </trkpt>
      <trkpt lat="45.18514" lon="4.57099">
        <ele>1021.024</ele>
        <time>2013-03-23T15:11:53Z</time>
      </trkpt>
      <trkpt lat="45.18514" lon="4.57099">
        <ele>1021.3</ele>
        <time>2013-03-23T15:15:29Z</time>
      </trkpt>
      <trkpt lat="45.18514" lon="4.57099">
        <ele>1021.299</ele>
        <time>2013-03-23T15:15:35Z</time>
      </trkpt>
      <trkpt lat="45.18526" lon="4.57125">
        <ele>1019.273</ele>
        <time>2013-03-23T15:15:45Z</time>
      </trkpt>
      <trkpt lat="45.18528" lon="4.57149">
        <ele>1018.239</ele>
        <time>2013-03-23T15:15:52Z</time>
      </trkpt>
      <trkpt lat="45.18529" lon="4.57155">
        <ele>1017.445</ele>
        <time>2013-03-23T15:15:56Z</time>
      </trkpt>
      <trkpt lat="45.18536" lon="4.57162">
        <ele>1017.278</ele>
        <time>2013-03-23T15:16:00Z</time>
      </trkpt>
      <trkpt lat="45.18563" lon="4.57185">
        <ele>1018.31</ele>
        <time>2013-03-23T15:16:11Z</time>
      </trkpt>
      <trkpt lat="45.18594" lon="4.57213">
        <ele>1017.254</ele>
        <time>2013-03-23T15:16:23Z</time>
      </trkpt>
      <trkpt lat="45.1862" lon="4.57252">
        <ele>1018.907</ele>
        <time>2013-03-23T15:16:37Z</time>
      </trkpt>
      <trkpt lat="45.18659" lon="4.57299">
        <ele>1021.053</ele>
        <time>2013-03-23T15:16:55Z</time>
      </trkpt>
      <trkpt lat="45.18676" lon="4.57319">
        <ele>1024.941</ele>
        <time>2013-03-23T15:17:04Z</time>
      </trkpt>
      <trkpt lat="45.18694" lon="4.57337">
        <ele>1028.241</ele>
        <time>2013-03-23T15:17:13Z</time>
      </trkpt>
      <trkpt lat="45.18716" lon="4.57351">
        <ele>1026.144</ele>
        <time>2013-03-23T15:17:22Z</time>
      </trkpt>
      <trkpt lat="45.18727" lon="4.5736">
        <ele>1027.738</ele>
        <time>2013-03-23T15:17:27Z</time>
      </trkpt>
      <trkpt lat="45.18741" lon="4.57368">
        <ele>1029.502</ele>
        <time>2013-03-23T15:17:34Z</time>
      </trkpt>
      <trkpt lat="45.18768" lon="4.57384">
        <ele>1031.178</ele>
        <time>2013-03-23T15:17:48Z</time>
      </trkpt>
      <trkpt lat="45.18783" lon="4.5739">
        <ele>1029.573</ele>
        <time>2013-03-23T15:17:55Z</time>
      </trkpt>
      <trkpt lat="45.18794" lon="4.57394">
        <ele>1028.059</ele>
        <time>2013-03-23T15:18:06Z</time>
      </trkpt>
      <trkpt lat="45.18806" lon="4.57396">
        <ele>1028.719</ele>
        <time>2013-03-23T15:18:28Z</time>
      </trkpt>
      <trkpt lat="45.18823" lon="4.57395">
        <ele>1030.583</ele>
        <time>2013-03-23T15:18:39Z</time>
      </trkpt>
      <trkpt lat="45.18854" lon="4.5739">
        <ele>1034.258</ele>
        <time>2013-03-23T15:18:56Z</time>
      </trkpt>
      <trkpt lat="45.1888" lon="4.57386">
        <ele>1037.298</ele>
        <time>2013-03-23T15:19:09Z</time>
      </trkpt>
      <trkpt lat="45.18912" lon="4.57385">
        <ele>1038.728</ele>
        <time>2013-03-23T15:19:24Z</time>
      </trkpt>
      <trkpt lat="45.18936" lon="4.5739">
        <ele>1038.8</ele>
        <time>2013-03-23T15:19:37Z</time>
      </trkpt>
      <trkpt lat="45.18941" lon="4.57393">
        <ele>1037.888</ele>
        <time>2013-03-23T15:19:39Z</time>
      </trkpt>
      <trkpt lat="45.18952" lon="4.57432">
        <ele>1035.519</ele>
        <time>2013-03-23T15:19:53Z</time>
      </trkpt>
      <trkpt lat="45.18949" lon="4.57466">
        <ele>1033.752</ele>
        <time>2013-03-23T15:20:09Z</time>
      </trkpt>
      <trkpt lat="45.18946" lon="4.57481">
        <ele>1033.42</ele>
        <time>2013-03-23T15:20:59Z</time>
      </trkpt>
      <trkpt lat="45.18935" lon="4.57523">
        <ele>1033.985</ele>
        <time>2013-03-23T15:21:13Z</time>
      </trkpt>
      <trkpt lat="45.1892" lon="4.57573">
        <ele>1034.677</ele>
        <time>2013-03-23T15:21:29Z</time>
      </trkpt>
      <trkpt lat="45.18913" lon="4.57622">
        <ele>1034.394</ele>
        <time>2013-03-23T15:21:43Z</time>
      </trkpt>
      <trkpt lat="45.18923" lon="4.57679">
        <ele>1034.917</ele>
        <time>2013-03-23T15:22:01Z</time>
      </trkpt>
      <trkpt lat="45.1893" lon="4.57708">
        <ele>1037.093</ele>
        <time>2013-03-23T15:22:12Z</time>
      </trkpt>
      <trkpt lat="45.18935" lon="4.57745">
        <ele>1038.849</ele>
        <time>2013-03-23T15:22:25Z</time>
      </trkpt>
      <trkpt lat="45.18939" lon="4.57779">
        <ele>1037.885</ele>
        <time>2013-03-23T15:22:36Z</time>
      </trkpt>
      <trkpt lat="45.18942" lon="4.57793">
        <ele>1037.567</ele>
        <time>2013-03-23T15:22:40Z</time>
      </trkpt>
      <trkpt lat="45.18948" lon="4.57824">
        <ele>1036.893</ele>
        <time>2013-03-23T15:22:48Z</time>
      </trkpt>
      <trkpt lat="45.18958" lon="4.5787">
        <ele>1039.361</ele>
        <time>2013-03-23T15:22:59Z</time>
      </trkpt>
      <trkpt lat="45.18974" lon="4.57923">
        <ele>1038.351</ele>
        <time>2013-03-23T15:23:12Z</time>
      </trkpt>
      <trkpt lat="45.18993" lon="4.57962">
        <ele>1040.662</ele>
        <time>2013-03-23T15:23:23Z</time>
      </trkpt>
      <trkpt lat="45.19014" lon="4.58003">
        <ele>1043.005</ele>
        <time>2013-03-23T15:23:36Z</time>
      </trkpt>
      <trkpt lat="45.19036" lon="4.58046">
        <ele>1041.087</ele>
        <time>2013-03-23T15:23:53Z</time>
      </trkpt>
      <trkpt lat="45.19055" lon="4.5809">
        <ele>1040.869</ele>
        <time>2013-03-23T15:24:11Z</time>
      </trkpt>
      <trkpt lat="45.1906" lon="4.58125">
        <ele>1040.385</ele>
        <time>2013-03-23T15:24:21Z</time>
      </trkpt>
      <trkpt lat="45.1906" lon="4.5814">
        <ele>1040.881</ele>
        <time>2013-03-23T15:24:25Z</time>
      </trkpt>
      <trkpt lat="45.19049" lon="4.58173">
        <ele>1043.563</ele>
        <time>2013-03-23T15:24:36Z</time>
      </trkpt>
      <trkpt lat="45.19037" lon="4.58198">
        <ele>1042.769</ele>
        <time>2013-03-23T15:24:44Z</time>
      </trkpt>
      <trkpt lat="45.19018" lon="4.58238">
        <ele>1045.419</ele>
        <time>2013-03-23T15:24:55Z</time>
      </trkpt>
      <trkpt lat="45.19016" lon="4.58245">
        <ele>1045.337</ele>
        <time>2013-03-23T15:24:57Z</time>
      </trkpt>
      <trkpt lat="45.19012" lon="4.58258">
        <ele>1045.611</ele>
        <time>2013-03-23T15:25:01Z</time>
      </trkpt>
      <trkpt lat="45.19002" lon="4.58293">
        <ele>1047.729</ele>
        <time>2013-03-23T15:25:09Z</time>
      </trkpt>
      <trkpt lat="45.18994" lon="4.58333">
        <ele>1046.738</ele>
        <time>2013-03-23T15:25:18Z</time>
      </trkpt>
      <trkpt lat="45.18983" lon="4.58394">
        <ele>1045.571</ele>
        <time>2013-03-23T15:25:32Z</time>
      </trkpt>
      <trkpt lat="45.18981" lon="4.58404">
        <ele>1045.717</ele>
        <time>2013-03-23T15:25:35Z</time>
      </trkpt>
      <trkpt lat="45.1898" lon="4.58419">
        <ele>1045.88</ele>
        <time>2013-03-23T15:25:39Z</time>
      </trkpt>
      <trkpt lat="45.18976" lon="4.58469">
        <ele>1048.055</ele>
        <time>2013-03-23T15:25:51Z</time>
      </trkpt>
      <trkpt lat="45.18975" lon="4.58473">
        <ele>1047.902</ele>
        <time>2013-03-23T15:25:52Z</time>
      </trkpt>
      <trkpt lat="45.18974" lon="4.5851">
        <ele>1049.523</ele>
        <time>2013-03-23T15:26:00Z</time>
      </trkpt>
      <trkpt lat="45.18976" lon="4.58566">
        <ele>1044.35</ele>
        <time>2013-03-23T15:26:14Z</time>
      </trkpt>
      <trkpt lat="45.18978" lon="4.58602">
        <ele>1041.975</ele>
        <time>2013-03-23T15:26:23Z</time>
      </trkpt>
      <trkpt lat="45.18983" lon="4.58647">
        <ele>1042.578</ele>
        <time>2013-03-23T15:26:36Z</time>
      </trkpt>
      <trkpt lat="45.18989" lon="4.58684">
        <ele>1041.972</ele>
        <time>2013-03-23T15:26:43Z</time>
      </trkpt>
      <trkpt lat="45.18995" lon="4.58711">
        <ele>1042.799</ele>
        <time>2013-03-23T15:26:47Z</time>
      </trkpt>
      <trkpt lat="45.19014" lon="4.58773">
        <ele>1041.88</ele>
        <time>2013-03-23T15:26:57Z</time>
      </trkpt>
      <trkpt lat="45.19022" lon="4.58801">
        <ele>1040.869</ele>
        <time>2013-03-23T15:27:04Z</time>
      </trkpt>
      <trkpt lat="45.19027" lon="4.58817">
        <ele>1041.641</ele>
        <time>2013-03-23T15:27:09Z</time>
      </trkpt>
      <trkpt lat="45.19035" lon="4.58838">
        <ele>1041.376</ele>
        <time>2013-03-23T15:27:14Z</time>
      </trkpt>
      <trkpt lat="45.19061" lon="4.58894">
        <ele>1036.709</ele>
        <time>2013-03-23T15:27:26Z</time>
      </trkpt>
      <trkpt lat="45.19092" lon="4.58961">
        <ele>1033.998</ele>
        <time>2013-03-23T15:27:41Z</time>
      </trkpt>
      <trkpt lat="45.19103" lon="4.59019">
        <ele>1034.247</ele>
        <time>2013-03-23T15:27:55Z</time>
      </trkpt>
      <trkpt lat="45.19101" lon="4.59064">
        <ele>1032.782</ele>
        <time>2013-03-23T15:28:08Z</time>
      </trkpt>
      <trkpt lat="45.191" lon="4.59067">
        <ele>1032.523</ele>
        <time>2013-03-23T15:28:15Z</time>
      </trkpt>
      <trkpt lat="45.19109" lon="4.5907">
        <ele>1032.396</ele>
        <time>2013-03-23T15:28:24Z</time>
      </trkpt>
      <trkpt lat="45.19108" lon="4.59071">
        <ele>1032.684</ele>
        <time>2013-03-23T15:28:32Z</time>
      </trkpt>
      <trkpt lat="45.19106" lon="4.59071">
        <ele>1031.87</ele>
        <time>2013-03-23T15:28:44Z</time>
      </trkpt>
      <trkpt lat="45.19106" lon="4.59071">
        <ele>1031.841</ele>
        <time>2013-03-23T15:28:51Z</time>
      </trkpt>
      <trkpt lat="45.19098" lon="4.59099">
        <ele>1030.454</ele>
        <time>2013-03-23T15:29:01Z</time>
      </trkpt>
      <trkpt lat="45.19091" lon="4.59118">
        <ele>1029.179</ele>
        <time>2013-03-23T15:29:05Z</time>
      </trkpt>
      <trkpt lat="45.19052" lon="4.59188">
        <ele>1025.777</ele>
        <time>2013-03-23T15:29:17Z</time>
      </trkpt>
      <trkpt lat="45.19024" lon="4.59243">
        <ele>1025.122</ele>
        <time>2013-03-23T15:29:26Z</time>
      </trkpt>
      <trkpt lat="45.19003" lon="4.59282">
        <ele>1029.177</ele>
        <time>2013-03-23T15:29:35Z</time>
      </trkpt>
      <trkpt lat="45.18996" lon="4.593">
        <ele>1032.074</ele>
        <time>2013-03-23T15:29:41Z</time>
      </trkpt>
      <trkpt lat="45.18985" lon="4.5933">
        <ele>1035.113</ele>
        <time>2013-03-23T15:29:49Z</time>
      </trkpt>
      <trkpt lat="45.18984" lon="4.5934">
        <ele>1035.273</ele>
        <time>2013-03-23T15:29:52Z</time>
      </trkpt>
      <trkpt lat="45.18981" lon="4.5936">
        <ele>1037.449</ele>
        <time>2013-03-23T15:29:58Z</time>
      </trkpt>
      <trkpt lat="45.18977" lon="4.5943">
        <ele>1038.181</ele>
        <time>2013-03-23T15:30:18Z</time>
      </trkpt>
      <trkpt lat="45.18977" lon="4.59433">
        <ele>1038.186</ele>
        <time>2013-03-23T15:30:19Z</time>
      </trkpt>
      <trkpt lat="45.18977" lon="4.59448">
        <ele>1035.842</ele>
        <time>2013-03-23T15:30:24Z</time>
      </trkpt>
      <trkpt lat="45.18977" lon="4.59477">
        <ele>1033.824</ele>
        <time>2013-03-23T15:30:32Z</time>
      </trkpt>
      <trkpt lat="45.18978" lon="4.59498">
        <ele>1033.362</ele>
        <time>2013-03-23T15:30:38Z</time>
      </trkpt>
      <trkpt lat="45.1898" lon="4.59531">
        <ele>1033.497</ele>
        <time>2013-03-23T15:30:47Z</time>
      </trkpt>
      <trkpt lat="45.1898" lon="4.5957">
        <ele>1031.013</ele>
        <time>2013-03-23T15:30:57Z</time>
      </trkpt>
      <trkpt lat="45.1898" lon="4.5957">
        <ele>1030.182</ele>
        <time>2013-03-23T15:31:08Z</time>
      </trkpt>
      <trkpt lat="45.1898" lon="4.5957">
        <ele>1030.23</ele>
        <time>2013-03-23T15:31:22Z</time>
      </trkpt>
      <trkpt lat="45.18991" lon="4.59585">
        <ele>1027.723</ele>
        <time>2013-03-23T15:31:31Z</time>
      </trkpt>
      <trkpt lat="45.18985" lon="4.59604">
        <ele>1025.148</ele>
        <time>2013-03-23T15:31:36Z</time>
      </trkpt>
      <trkpt lat="45.18994" lon="4.59631">
        <ele>1021.358</ele>
        <time>2013-03-23T15:31:41Z</time>
      </trkpt>
      <trkpt lat="45.1901" lon="4.59674">
        <ele>1016.202</ele>
        <time>2013-03-23T15:31:47Z</time>
      </trkpt>
      <trkpt lat="45.19018" lon="4.59693">
        <ele>1013.471</ele>
        <time>2013-03-23T15:31:50Z</time>
      </trkpt>
      <trkpt lat="45.1903" lon="4.59718">
        <ele>1008.999</ele>
        <time>2013-03-23T15:31:54Z</time>
      </trkpt>
      <trkpt lat="45.19044" lon="4.59736">
        <ele>1005.578</ele>
        <time>2013-03-23T15:31:57Z</time>
      </trkpt>
      <trkpt lat="45.1906" lon="4.59755">
        <ele>1003.407</ele>
        <time>2013-03-23T15:32:00Z</time>
      </trkpt>
      <trkpt lat="45.19076" lon="4.59774">
        <ele>998.904</ele>
        <time>2013-03-23T15:32:04Z</time>
      </trkpt>
      <trkpt lat="45.1908" lon="4.59777">
        <ele>997.872</ele>
        <time>2013-03-23T15:32:11Z</time>
      </trkpt>
      <trkpt lat="45.1908" lon="4.59777">
        <ele>997.54</ele>
        <time>2013-03-23T15:32:36Z</time>
      </trkpt>
      <trkpt lat="45.19102" lon="4.59819">
        <ele>994.249</ele>
        <time>2013-03-23T15:32:48Z</time>
      </trkpt>
      <trkpt lat="45.19113" lon="4.59842">
        <ele>993.894</ele>
        <time>2013-03-23T15:32:53Z</time>
      </trkpt>
      <trkpt lat="45.19127" lon="4.59856">
        <ele>993.785</ele>
        <time>2013-03-23T15:32:57Z</time>
      </trkpt>
      <trkpt lat="45.19178" lon="4.59897">
        <ele>990.822</ele>
        <time>2013-03-23T15:33:07Z</time>
      </trkpt>
      <trkpt lat="45.19213" lon="4.59928">
        <ele>989.163</ele>
        <time>2013-03-23T15:33:13Z</time>
      </trkpt>
      <trkpt lat="45.19295" lon="4.59976">
        <ele>982.511</ele>
        <time>2013-03-23T15:33:25Z</time>
      </trkpt>
      <trkpt lat="45.19375" lon="4.60007">
        <ele>976.632</ele>
        <time>2013-03-23T15:33:35Z</time>
      </trkpt>
      <trkpt lat="45.19449" lon="4.60033">
        <ele>971.325</ele>
        <time>2013-03-23T15:33:45Z</time>
      </trkpt>
      <trkpt lat="45.1947" lon="4.60043">
        <ele>969.759</ele>
        <time>2013-03-23T15:33:48Z</time>
      </trkpt>
      <trkpt lat="45.1951" lon="4.60043">
        <ele>966.621</ele>
        <time>2013-03-23T15:33:55Z</time>
      </trkpt>
      <trkpt lat="45.19524" lon="4.60039">
        <ele>966.019</ele>
        <time>2013-03-23T15:34:21Z</time>
      </trkpt>
      <trkpt lat="45.19528" lon="4.60037">
        <ele>965.774</ele>
        <time>2013-03-23T15:34:22Z</time>
      </trkpt>
      <trkpt lat="45.19541" lon="4.60029">
        <ele>964.767</ele>
        <time>2013-03-23T15:34:25Z</time>
      </trkpt>
      <trkpt lat="45.19572" lon="4.59997">
        <ele>961.058</ele>
        <time>2013-03-23T15:34:31Z</time>
      </trkpt>
      <trkpt lat="45.19604" lon="4.59966">
        <ele>957.78</ele>
        <time>2013-03-23T15:34:36Z</time>
      </trkpt>
      <trkpt lat="45.19637" lon="4.59954">
        <ele>954.993</ele>
        <time>2013-03-23T15:34:40Z</time>
      </trkpt>
      <trkpt lat="45.19732" lon="4.59962">
        <ele>946.812</ele>
        <time>2013-03-23T15:34:50Z</time>
      </trkpt>
      <trkpt lat="45.19742" lon="4.59962">
        <ele>946.467</ele>
        <time>2013-03-23T15:34:51Z</time>
      </trkpt>
      <trkpt lat="45.19801" lon="4.59948">
        <ele>942.043</ele>
        <time>2013-03-23T15:34:57Z</time>
      </trkpt>
      <trkpt lat="45.19858" lon="4.59961">
        <ele>935.082</ele>
        <time>2013-03-23T15:35:04Z</time>
      </trkpt>
      <trkpt lat="45.19877" lon="4.59988">
        <ele>931.572</ele>
        <time>2013-03-23T15:35:07Z</time>
      </trkpt>
      <trkpt lat="45.19945" lon="4.60119">
        <ele>921.403</ele>
        <time>2013-03-23T15:35:18Z</time>
      </trkpt>
      <trkpt lat="45.19985" lon="4.60206">
        <ele>914.558</ele>
        <time>2013-03-23T15:35:26Z</time>
      </trkpt>
      <trkpt lat="45.20016" lon="4.60233">
        <ele>911</ele>
        <time>2013-03-23T15:35:30Z</time>
      </trkpt>
      <trkpt lat="45.20082" lon="4.60281">
        <ele>904.26</ele>
        <time>2013-03-23T15:35:38Z</time>
      </trkpt>
      <trkpt lat="45.20108" lon="4.60315">
        <ele>900.304</ele>
        <time>2013-03-23T15:35:44Z</time>
      </trkpt>
      <trkpt lat="45.20108" lon="4.60315">
        <ele>899.351</ele>
        <time>2013-03-23T15:35:53Z</time>
      </trkpt>
      <trkpt lat="45.20108" lon="4.60315">
        <ele>899.253</ele>
        <time>2013-03-23T15:37:36Z</time>
      </trkpt>
      <trkpt lat="45.20101" lon="4.60336">
        <ele>898.88</ele>
        <time>2013-03-23T15:37:40Z</time>
      </trkpt>
      <trkpt lat="45.20091" lon="4.60345">
        <ele>896.841</ele>
        <time>2013-03-23T15:37:50Z</time>
      </trkpt>
      <trkpt lat="45.20091" lon="4.60345">
        <ele>896.141</ele>
        <time>2013-03-23T15:38:04Z</time>
      </trkpt>
      <trkpt lat="45.20085" lon="4.60399">
        <ele>893.027</ele>
        <time>2013-03-23T15:38:09Z</time>
      </trkpt>
      <trkpt lat="45.2008" lon="4.60393">
        <ele>889.737</ele>
        <time>2013-03-23T15:38:13Z</time>
      </trkpt>
      <trkpt lat="45.20076" lon="4.60389">
        <ele>884.908</ele>
        <time>2013-03-23T15:38:20Z</time>
      </trkpt>
      <trkpt lat="45.20077" lon="4.60392">
        <ele>884.512</ele>
        <time>2013-03-23T15:38:21Z</time>
      </trkpt>
      <trkpt lat="45.20091" lon="4.60416">
        <ele>881.506</ele>
        <time>2013-03-23T15:38:29Z</time>
      </trkpt>
      <trkpt lat="45.20121" lon="4.60454">
        <ele>876.242</ele>
        <time>2013-03-23T15:38:36Z</time>
      </trkpt>
      <trkpt lat="45.20132" lon="4.60486">
        <ele>873.16</ele>
        <time>2013-03-23T15:38:39Z</time>
      </trkpt>
      <trkpt lat="45.20158" lon="4.60551">
        <ele>869.584</ele>
        <time>2013-03-23T15:38:45Z</time>
      </trkpt>
      <trkpt lat="45.20191" lon="4.60629">
        <ele>862.724</ele>
        <time>2013-03-23T15:38:53Z</time>
      </trkpt>
      <trkpt lat="45.20201" lon="4.60651">
        <ele>860.74</ele>
        <time>2013-03-23T15:38:55Z</time>
      </trkpt>
      <trkpt lat="45.20214" lon="4.60681">
        <ele>859.304</ele>
        <time>2013-03-23T15:38:58Z</time>
      </trkpt>
      <trkpt lat="45.20261" lon="4.60802">
        <ele>853.52</ele>
        <time>2013-03-23T15:39:09Z</time>
      </trkpt>
      <trkpt lat="45.20286" lon="4.6087">
        <ele>848.313</ele>
        <time>2013-03-23T15:39:15Z</time>
      </trkpt>
      <trkpt lat="45.20305" lon="4.6091">
        <ele>840.581</ele>
        <time>2013-03-23T15:39:22Z</time>
      </trkpt>
      <trkpt lat="45.20305" lon="4.6091">
        <ele>839.272</ele>
        <time>2013-03-23T15:39:40Z</time>
      </trkpt>
      <trkpt lat="45.20302" lon="4.60904">
        <ele>838.474</ele>
        <time>2013-03-23T15:39:48Z</time>
      </trkpt>
      <trkpt lat="45.20302" lon="4.60904">
        <ele>837.16</ele>
        <time>2013-03-23T15:39:57Z</time>
      </trkpt>
      <trkpt lat="45.20302" lon="4.60904">
        <ele>836.263</ele>
        <time>2013-03-23T15:40:08Z</time>
      </trkpt>
      <trkpt lat="45.20286" lon="4.60905">
        <ele>835.188</ele>
        <time>2013-03-23T15:40:12Z</time>
      </trkpt>
      <trkpt lat="45.20242" lon="4.60858">
        <ele>832.997</ele>
        <time>2013-03-23T15:40:24Z</time>
      </trkpt>
      <trkpt lat="45.20203" lon="4.60808">
        <ele>830.121</ele>
        <time>2013-03-23T15:40:35Z</time>
      </trkpt>
      <trkpt lat="45.20162" lon="4.60756">
        <ele>821.925</ele>
        <time>2013-03-23T15:40:43Z</time>
      </trkpt>
      <trkpt lat="45.20105" lon="4.60704">
        <ele>814.171</ele>
        <time>2013-03-23T15:40:52Z</time>
      </trkpt>
      <trkpt lat="45.20088" lon="4.60687">
        <ele>813.17</ele>
        <time>2013-03-23T15:40:55Z</time>
      </trkpt>
      <trkpt lat="45.20065" lon="4.60655">
        <ele>810.359</ele>
        <time>2013-03-23T15:41:00Z</time>
      </trkpt>
      <trkpt lat="45.20055" lon="4.60636">
        <ele>810.992</ele>
        <time>2013-03-23T15:41:03Z</time>
      </trkpt>
      <trkpt lat="45.2004" lon="4.60613">
        <ele>812.305</ele>
        <time>2013-03-23T15:41:11Z</time>
      </trkpt>
      <trkpt lat="45.20041" lon="4.60613">
        <ele>811.551</ele>
        <time>2013-03-23T15:42:26Z</time>
      </trkpt>
      <trkpt lat="45.20018" lon="4.60603">
        <ele>811.607</ele>
        <time>2013-03-23T15:42:36Z</time>
      </trkpt>
      <trkpt lat="45.19962" lon="4.60587">
        <ele>811.554</ele>
        <time>2013-03-23T15:42:50Z</time>
      </trkpt>
      <trkpt lat="45.19904" lon="4.60571">
        <ele>810.921</ele>
        <time>2013-03-23T15:43:03Z</time>
      </trkpt>
      <trkpt lat="45.19868" lon="4.60565">
        <ele>810.528</ele>
        <time>2013-03-23T15:43:14Z</time>
      </trkpt>
      <trkpt lat="45.19847" lon="4.60563">
        <ele>808.218</ele>
        <time>2013-03-23T15:43:25Z</time>
      </trkpt>
      <trkpt lat="45.1984" lon="4.60562">
        <ele>808.267</ele>
        <time>2013-03-23T15:43:28Z</time>
      </trkpt>
      <trkpt lat="45.19811" lon="4.60563">
        <ele>809.874</ele>
        <time>2013-03-23T15:43:41Z</time>
      </trkpt>
      <trkpt lat="45.19783" lon="4.60573">
        <ele>812.413</ele>
        <time>2013-03-23T15:43:55Z</time>
      </trkpt>
      <trkpt lat="45.19747" lon="4.60588">
        <ele>815.839</ele>
        <time>2013-03-23T15:44:10Z</time>
      </trkpt>
      <trkpt lat="45.19711" lon="4.60613">
        <ele>815.684</ele>
        <time>2013-03-23T15:44:29Z</time>
      </trkpt>
      <trkpt lat="45.19682" lon="4.60641">
        <ele>814.847</ele>
        <time>2013-03-23T15:44:42Z</time>
      </trkpt>
      <trkpt lat="45.19644" lon="4.6068">
        <ele>812.848</ele>
        <time>2013-03-23T15:44:56Z</time>
      </trkpt>
      <trkpt lat="45.19632" lon="4.60695">
        <ele>811.427</ele>
        <time>2013-03-23T15:44:59Z</time>
      </trkpt>
      <trkpt lat="45.19619" lon="4.60727">
        <ele>810.247</ele>
        <time>2013-03-23T15:45:04Z</time>
      </trkpt>
      <trkpt lat="45.19623" lon="4.60825">
        <ele>807.485</ele>
        <time>2013-03-23T15:45:18Z</time>
      </trkpt>
      <trkpt lat="45.19628" lon="4.60847">
        <ele>806.192</ele>
        <time>2013-03-23T15:45:21Z</time>
      </trkpt>
      <trkpt lat="45.19658" lon="4.60914">
        <ele>803.14</ele>
        <time>2013-03-23T15:45:30Z</time>
      </trkpt>
      <trkpt lat="45.19683" lon="4.60952">
        <ele>801.473</ele>
        <time>2013-03-23T15:45:35Z</time>
      </trkpt>
      <trkpt lat="45.19694" lon="4.61004">
        <ele>797.958</ele>
        <time>2013-03-23T15:45:40Z</time>
      </trkpt>
      <trkpt lat="45.19696" lon="4.61045">
        <ele>796.991</ele>
        <time>2013-03-23T15:45:44Z</time>
      </trkpt>
      <trkpt lat="45.19694" lon="4.61075">
        <ele>795.988</ele>
        <time>2013-03-23T15:45:47Z</time>
      </trkpt>
      <trkpt lat="45.19682" lon="4.6111">
        <ele>794.142</ele>
        <time>2013-03-23T15:45:51Z</time>
      </trkpt>
      <trkpt lat="45.19636" lon="4.61153">
        <ele>790.865</ele>
        <time>2013-03-23T15:45:59Z</time>
      </trkpt>
      <trkpt lat="45.19624" lon="4.61162">
        <ele>789.926</ele>
        <time>2013-03-23T15:46:01Z</time>
      </trkpt>
      <trkpt lat="45.19604" lon="4.61174">
        <ele>788.82</ele>
        <time>2013-03-23T15:46:04Z</time>
      </trkpt>
      <trkpt lat="45.19572" lon="4.61178">
        <ele>789.117</ele>
        <time>2013-03-23T15:46:11Z</time>
      </trkpt>
      <trkpt lat="45.19541" lon="4.61177">
        <ele>787.031</ele>
        <time>2013-03-23T15:46:18Z</time>
      </trkpt>
      <trkpt lat="45.19522" lon="4.61178">
        <ele>786.06</ele>
        <time>2013-03-23T15:46:22Z</time>
      </trkpt>
      <trkpt lat="45.19497" lon="4.61183">
        <ele>783.745</ele>
        <time>2013-03-23T15:46:27Z</time>
      </trkpt>
      <trkpt lat="45.19477" lon="4.61222">
        <ele>780.11</ele>
        <time>2013-03-23T15:46:33Z</time>
      </trkpt>
      <trkpt lat="45.1948" lon="4.61277">
        <ele>775.804</ele>
        <time>2013-03-23T15:46:38Z</time>
      </trkpt>
      <trkpt lat="45.19483" lon="4.61312">
        <ele>773.488</ele>
        <time>2013-03-23T15:46:41Z</time>
      </trkpt>
      <trkpt lat="45.19513" lon="4.61438">
        <ele>765.843</ele>
        <time>2013-03-23T15:46:52Z</time>
      </trkpt>
      <trkpt lat="45.19513" lon="4.61501">
        <ele>762.778</ele>
        <time>2013-03-23T15:46:57Z</time>
      </trkpt>
      <trkpt lat="45.19479" lon="4.61569">
        <ele>758.881</ele>
        <time>2013-03-23T15:47:04Z</time>
      </trkpt>
      <trkpt lat="45.19442" lon="4.61578">
        <ele>759.99</ele>
        <time>2013-03-23T15:47:10Z</time>
      </trkpt>
      <trkpt lat="45.19438" lon="4.61577">
        <ele>759.996</ele>
        <time>2013-03-23T15:47:11Z</time>
      </trkpt>
      <trkpt lat="45.19429" lon="4.61575">
        <ele>760.506</ele>
        <time>2013-03-23T15:47:17Z</time>
      </trkpt>
      <trkpt lat="45.1943" lon="4.61575">
        <ele>760.411</ele>
        <time>2013-03-23T15:47:42Z</time>
      </trkpt>
      <trkpt lat="45.19402" lon="4.61571">
        <ele>761.852</ele>
        <time>2013-03-23T15:47:54Z</time>
      </trkpt>
      <trkpt lat="45.19378" lon="4.61567">
        <ele>762.444</ele>
        <time>2013-03-23T15:48:03Z</time>
      </trkpt>
      <trkpt lat="45.19346" lon="4.61562">
        <ele>762.8</ele>
        <time>2013-03-23T15:48:16Z</time>
      </trkpt>
      <trkpt lat="45.19323" lon="4.61557">
        <ele>766.857</ele>
        <time>2013-03-23T15:48:24Z</time>
      </trkpt>
      <trkpt lat="45.19306" lon="4.61555">
        <ele>766.398</ele>
        <time>2013-03-23T15:48:30Z</time>
      </trkpt>
      <trkpt lat="45.19285" lon="4.61553">
        <ele>765.113</ele>
        <time>2013-03-23T15:48:37Z</time>
      </trkpt>
      <trkpt lat="45.19257" lon="4.61552">
        <ele>765.07</ele>
        <time>2013-03-23T15:48:47Z</time>
      </trkpt>
      <trkpt lat="45.19246" lon="4.61552">
        <ele>765.374</ele>
        <time>2013-03-23T15:48:50Z</time>
      </trkpt>
      <trkpt lat="45.19222" lon="4.61551">
        <ele>761.712</ele>
        <time>2013-03-23T15:48:59Z</time>
      </trkpt>
      <trkpt lat="45.19196" lon="4.61558">
        <ele>760.545</ele>
        <time>2013-03-23T15:49:07Z</time>
      </trkpt>
      <trkpt lat="45.19191" lon="4.61559">
        <ele>760.178</ele>
        <time>2013-03-23T15:49:08Z</time>
      </trkpt>
      <trkpt lat="45.19169" lon="4.61573">
        <ele>758.827</ele>
        <time>2013-03-23T15:49:12Z</time>
      </trkpt>
      <trkpt lat="45.19148" lon="4.61607">
        <ele>755.422</ele>
        <time>2013-03-23T15:49:17Z</time>
      </trkpt>
      <trkpt lat="45.19142" lon="4.61667">
        <ele>753.203</ele>
        <time>2013-03-23T15:49:23Z</time>
      </trkpt>
      <trkpt lat="45.19142" lon="4.61715">
        <ele>753.448</ele>
        <time>2013-03-23T15:49:28Z</time>
      </trkpt>
      <trkpt lat="45.19138" lon="4.61785">
        <ele>756.623</ele>
        <time>2013-03-23T15:49:39Z</time>
      </trkpt>
      <trkpt lat="45.19131" lon="4.61822">
        <ele>758.214</ele>
        <time>2013-03-23T15:49:50Z</time>
      </trkpt>
      <trkpt lat="45.19129" lon="4.61835">
        <ele>759.391</ele>
        <time>2013-03-23T15:49:56Z</time>
      </trkpt>
      <trkpt lat="45.19126" lon="4.61851">
        <ele>762.466</ele>
        <time>2013-03-23T15:50:04Z</time>
      </trkpt>
      <trkpt lat="45.19122" lon="4.61863">
        <ele>763.963</ele>
        <time>2013-03-23T15:50:08Z</time>
      </trkpt>
      <trkpt lat="45.19108" lon="4.61885">
        <ele>770.55</ele>
        <time>2013-03-23T15:50:22Z</time>
      </trkpt>
      <trkpt lat="45.19108" lon="4.61885">
        <ele>771.794</ele>
        <time>2013-03-23T15:50:32Z</time>
      </trkpt>
      <trkpt lat="45.19108" lon="4.61885">
        <ele>771.941</ele>
        <time>2013-03-23T15:50:35Z</time>
      </trkpt>
      <trkpt lat="45.19108" lon="4.61885">
        <ele>772.191</ele>
        <time>2013-03-23T15:50:37Z</time>
      </trkpt>
      <trkpt lat="45.19079" lon="4.619">
        <ele>768.46</ele>
        <time>2013-03-23T15:50:49Z</time>
      </trkpt>
      <trkpt lat="45.19056" lon="4.61914">
        <ele>768.452</ele>
        <time>2013-03-23T15:50:58Z</time>
      </trkpt>
      <trkpt lat="45.19027" lon="4.61932">
        <ele>767.801</ele>
        <time>2013-03-23T15:51:07Z</time>
      </trkpt>
      <trkpt lat="45.19007" lon="4.61953">
        <ele>772.68</ele>
        <time>2013-03-23T15:51:16Z</time>
      </trkpt>
      <trkpt lat="45.19004" lon="4.61965">
        <ele>774.338</ele>
        <time>2013-03-23T15:51:20Z</time>
      </trkpt>
      <trkpt lat="45.19001" lon="4.61977">
        <ele>775.519</ele>
        <time>2013-03-23T15:51:30Z</time>
      </trkpt>
      <trkpt lat="45.19001" lon="4.61977">
        <ele>775.611</ele>
        <time>2013-03-23T15:51:57Z</time>
      </trkpt>
      <trkpt lat="45.19001" lon="4.61977">
        <ele>776.043</ele>
        <time>2013-03-23T15:52:01Z</time>
      </trkpt>
      <trkpt lat="45.19001" lon="4.61977">
        <ele>773.456</ele>
        <time>2013-03-23T15:52:09Z</time>
      </trkpt>
      <trkpt lat="45.19001" lon="4.61977">
        <ele>772.658</ele>
        <time>2013-03-23T15:52:11Z</time>
      </trkpt>
      <trkpt lat="45.19001" lon="4.61977">
        <ele>769.263</ele>
        <time>2013-03-23T15:52:18Z</time>
      </trkpt>
      <trkpt lat="45.19001" lon="4.61977">
        <ele>769.481</ele>
        <time>2013-03-23T15:52:25Z</time>
      </trkpt>
      <trkpt lat="45.19001" lon="4.61977">
        <ele>768.667</ele>
        <time>2013-03-23T15:52:31Z</time>
      </trkpt>
      <trkpt lat="45.19001" lon="4.61977">
        <ele>768.076</ele>
        <time>2013-03-23T15:52:38Z</time>
      </trkpt>
      <trkpt lat="45.19001" lon="4.61977">
        <ele>767.838</ele>
        <time>2013-03-23T15:52:40Z</time>
      </trkpt>
      <trkpt lat="45.18997" lon="4.62041">
        <ele>766.366</ele>
        <time>2013-03-23T15:52:50Z</time>
      </trkpt>
      <trkpt lat="45.18997" lon="4.62041">
        <ele>767.714</ele>
        <time>2013-03-23T15:53:12Z</time>
      </trkpt>
      <trkpt lat="45.18997" lon="4.62041">
        <ele>765.765</ele>
        <time>2013-03-23T15:53:26Z</time>
      </trkpt>
      <trkpt lat="45.18997" lon="4.62063">
        <ele>764.228</ele>
        <time>2013-03-23T15:53:34Z</time>
      </trkpt>
      <trkpt lat="45.18997" lon="4.6208">
        <ele>762.333</ele>
        <time>2013-03-23T15:53:37Z</time>
      </trkpt>
      <trkpt lat="45.18997" lon="4.62097">
        <ele>760.426</ele>
        <time>2013-03-23T15:53:40Z</time>
      </trkpt>
      <trkpt lat="45.19076" lon="4.62113">
        <ele>757.153</ele>
        <time>2013-03-23T15:53:48Z</time>
      </trkpt>
      <trkpt lat="45.19125" lon="4.62171">
        <ele>754.182</ele>
        <time>2013-03-23T15:53:54Z</time>
      </trkpt>
      <trkpt lat="45.19125" lon="4.62171">
        <ele>748.344</ele>
        <time>2013-03-23T15:54:00Z</time>
      </trkpt>
      <trkpt lat="45.19125" lon="4.62171">
        <ele>745.628</ele>
        <time>2013-03-23T15:54:02Z</time>
      </trkpt>
      <trkpt lat="45.19125" lon="4.62171">
        <ele>740.621</ele>
        <time>2013-03-23T15:54:06Z</time>
      </trkpt>
      <trkpt lat="45.19137" lon="4.62179">
        <ele>733.335</ele>
        <time>2013-03-23T15:54:14Z</time>
      </trkpt>
      <trkpt lat="45.19139" lon="4.62179">
        <ele>731.531</ele>
        <time>2013-03-23T15:54:23Z</time>
      </trkpt>
      <trkpt lat="45.19141" lon="4.6218">
        <ele>731.042</ele>
        <time>2013-03-23T15:54:24Z</time>
      </trkpt>
      <trkpt lat="45.1916" lon="4.62188">
        <ele>720.212</ele>
        <time>2013-03-23T15:54:30Z</time>
      </trkpt>
      <trkpt lat="45.19178" lon="4.62193">
        <ele>715.29</ele>
        <time>2013-03-23T15:54:34Z</time>
      </trkpt>
      <trkpt lat="45.19216" lon="4.62228">
        <ele>706.63</ele>
        <time>2013-03-23T15:54:42Z</time>
      </trkpt>
      <trkpt lat="45.19229" lon="4.62245">
        <ele>703.96</ele>
        <time>2013-03-23T15:54:45Z</time>
      </trkpt>
      <trkpt lat="45.19249" lon="4.62254">
        <ele>699.332</ele>
        <time>2013-03-23T15:54:51Z</time>
      </trkpt>
      <trkpt lat="45.19255" lon="4.62248">
        <ele>698.24</ele>
        <time>2013-03-23T15:54:53Z</time>
      </trkpt>
      <trkpt lat="45.19279" lon="4.62221">
        <ele>693.671</ele>
        <time>2013-03-23T15:55:01Z</time>
      </trkpt>
      <trkpt lat="45.19282" lon="4.62218">
        <ele>693.253</ele>
        <time>2013-03-23T15:55:02Z</time>
      </trkpt>
      <trkpt lat="45.19289" lon="4.62211">
        <ele>690.772</ele>
        <time>2013-03-23T15:55:09Z</time>
      </trkpt>
      <trkpt lat="45.19289" lon="4.62211">
        <ele>690.378</ele>
        <time>2013-03-23T15:55:29Z</time>
      </trkpt>
      <trkpt lat="45.19289" lon="4.62211">
        <ele>690.548</ele>
        <time>2013-03-23T15:55:31Z</time>
      </trkpt>
      <trkpt lat="45.19302" lon="4.622">
        <ele>688.74</ele>
        <time>2013-03-23T15:55:36Z</time>
      </trkpt>
      <trkpt lat="45.19332" lon="4.62174">
        <ele>683.241</ele>
        <time>2013-03-23T15:55:44Z</time>
      </trkpt>
      <trkpt lat="45.19357" lon="4.62168">
        <ele>677.165</ele>
        <time>2013-03-23T15:55:49Z</time>
      </trkpt>
      <trkpt lat="45.19361" lon="4.62184">
        <ele>673.692</ele>
        <time>2013-03-23T15:55:53Z</time>
      </trkpt>
      <trkpt lat="45.19373" lon="4.62233">
        <ele>669.452</ele>
        <time>2013-03-23T15:55:59Z</time>
      </trkpt>
      <trkpt lat="45.19368" lon="4.62306">
        <ele>664.849</ele>
        <time>2013-03-23T15:56:07Z</time>
      </trkpt>
      <trkpt lat="45.19386" lon="4.62373">
        <ele>660.381</ele>
        <time>2013-03-23T15:56:16Z</time>
      </trkpt>
      <trkpt lat="45.19397" lon="4.62404">
        <ele>657.502</ele>
        <time>2013-03-23T15:56:20Z</time>
      </trkpt>
      <trkpt lat="45.19425" lon="4.62477">
        <ele>652.664</ele>
        <time>2013-03-23T15:56:29Z</time>
      </trkpt>
      <trkpt lat="45.19444" lon="4.62533">
        <ele>649.91</ele>
        <time>2013-03-23T15:56:36Z</time>
      </trkpt>
      <trkpt lat="45.19455" lon="4.62564">
        <ele>649.249</ele>
        <time>2013-03-23T15:56:40Z</time>
      </trkpt>
      <trkpt lat="45.19471" lon="4.62601">
        <ele>648.009</ele>
        <time>2013-03-23T15:56:45Z</time>
      </trkpt>
      <trkpt lat="45.19485" lon="4.62634">
        <ele>647.019</ele>
        <time>2013-03-23T15:56:50Z</time>
      </trkpt>
      <trkpt lat="45.19491" lon="4.62646">
        <ele>646.526</ele>
        <time>2013-03-23T15:56:52Z</time>
      </trkpt>
      <trkpt lat="45.19505" lon="4.62676">
        <ele>644.997</ele>
        <time>2013-03-23T15:56:57Z</time>
      </trkpt>
      <trkpt lat="45.19527" lon="4.62733">
        <ele>637.629</ele>
        <time>2013-03-23T15:57:06Z</time>
      </trkpt>
      <trkpt lat="45.19538" lon="4.6277">
        <ele>635.177</ele>
        <time>2013-03-23T15:57:11Z</time>
      </trkpt>
      <trkpt lat="45.19555" lon="4.62853">
        <ele>630.896</ele>
        <time>2013-03-23T15:57:22Z</time>
      </trkpt>
      <trkpt lat="45.19557" lon="4.62897">
        <ele>628.654</ele>
        <time>2013-03-23T15:57:30Z</time>
      </trkpt>
      <trkpt lat="45.19557" lon="4.62909">
        <ele>627.794</ele>
        <time>2013-03-23T15:57:32Z</time>
      </trkpt>
      <trkpt lat="45.1958" lon="4.62937">
        <ele>622.494</ele>
        <time>2013-03-23T15:57:37Z</time>
      </trkpt>
      <trkpt lat="45.19648" lon="4.6297">
        <ele>611.247</ele>
        <time>2013-03-23T15:57:44Z</time>
      </trkpt>
      <trkpt lat="45.19658" lon="4.62976">
        <ele>610</ele>
        <time>2013-03-23T15:57:46Z</time>
      </trkpt>
      <trkpt lat="45.19657" lon="4.62999">
        <ele>609.894</ele>
        <time>2013-03-23T15:57:53Z</time>
      </trkpt>
      <trkpt lat="45.19637" lon="4.63023">
        <ele>611.425</ele>
        <time>2013-03-23T15:58:04Z</time>
      </trkpt>
      <trkpt lat="45.19609" lon="4.63046">
        <ele>613.593</ele>
        <time>2013-03-23T15:58:17Z</time>
      </trkpt>
      <trkpt lat="45.19577" lon="4.63074">
        <ele>613.243</ele>
        <time>2013-03-23T15:58:29Z</time>
      </trkpt>
      <trkpt lat="45.19539" lon="4.63106">
        <ele>610.633</ele>
        <time>2013-03-23T15:58:38Z</time>
      </trkpt>
      <trkpt lat="45.19522" lon="4.63122">
        <ele>608.638</ele>
        <time>2013-03-23T15:58:41Z</time>
      </trkpt>
      <trkpt lat="45.1947" lon="4.63149">
        <ele>599.971</ele>
        <time>2013-03-23T15:58:49Z</time>
      </trkpt>
      <trkpt lat="45.19429" lon="4.63193">
        <ele>590.752</ele>
        <time>2013-03-23T15:58:55Z</time>
      </trkpt>
      <trkpt lat="45.19394" lon="4.63245">
        <ele>582.444</ele>
        <time>2013-03-23T15:59:01Z</time>
      </trkpt>
      <trkpt lat="45.19351" lon="4.63274">
        <ele>572.37</ele>
        <time>2013-03-23T15:59:08Z</time>
      </trkpt>
      <trkpt lat="45.19332" lon="4.63287">
        <ele>567.148</ele>
        <time>2013-03-23T15:59:11Z</time>
      </trkpt>
      <trkpt lat="45.19319" lon="4.63295">
        <ele>564.001</ele>
        <time>2013-03-23T15:59:13Z</time>
      </trkpt>
      <trkpt lat="45.19289" lon="4.63302">
        <ele>560.078</ele>
        <time>2013-03-23T15:59:17Z</time>
      </trkpt>
      <trkpt lat="45.19243" lon="4.63299">
        <ele>557.21</ele>
        <time>2013-03-23T15:59:23Z</time>
      </trkpt>
      <trkpt lat="45.19212" lon="4.63316">
        <ele>554.628</ele>
        <time>2013-03-23T15:59:29Z</time>
      </trkpt>
      <trkpt lat="45.19199" lon="4.63326">
        <ele>551.854</ele>
        <time>2013-03-23T15:59:34Z</time>
      </trkpt>
      <trkpt lat="45.19195" lon="4.63331">
        <ele>550.287</ele>
        <time>2013-03-23T15:59:44Z</time>
      </trkpt>
      <trkpt lat="45.19195" lon="4.63331">
        <ele>550.313</ele>
        <time>2013-03-23T15:59:45Z</time>
      </trkpt>
      <trkpt lat="45.19197" lon="4.63336">
        <ele>550.789</ele>
        <time>2013-03-23T15:59:49Z</time>
      </trkpt>
      <trkpt lat="45.19216" lon="4.63344">
        <ele>551.648</ele>
        <time>2013-03-23T15:59:58Z</time>
      </trkpt>
      <trkpt lat="45.19247" lon="4.63343">
        <ele>551.871</ele>
        <time>2013-03-23T16:00:11Z</time>
      </trkpt>
      <trkpt lat="45.19272" lon="4.63344">
        <ele>553.037</ele>
        <time>2013-03-23T16:00:23Z</time>
      </trkpt>
      <trkpt lat="45.19311" lon="4.63348">
        <ele>554.454</ele>
        <time>2013-03-23T16:00:38Z</time>
      </trkpt>
      <trkpt lat="45.19332" lon="4.63357">
        <ele>553.718</ele>
        <time>2013-03-23T16:00:45Z</time>
      </trkpt>
      <trkpt lat="45.19342" lon="4.63393">
        <ele>553.551</ele>
        <time>2013-03-23T16:00:52Z</time>
      </trkpt>
      <trkpt lat="45.19333" lon="4.63462">
        <ele>553.901</ele>
        <time>2013-03-23T16:01:08Z</time>
      </trkpt>
      <trkpt lat="45.1933" lon="4.6349">
        <ele>553.565</ele>
        <time>2013-03-23T16:01:18Z</time>
      </trkpt>
      <trkpt lat="45.19326" lon="4.63533">
        <ele>554.096</ele>
        <time>2013-03-23T16:01:28Z</time>
      </trkpt>
      <trkpt lat="45.19326" lon="4.63533">
        <ele>554.042</ele>
        <time>2013-03-23T16:01:35Z</time>
      </trkpt>
      <trkpt lat="45.19326" lon="4.63533">
        <ele>553.936</ele>
        <time>2013-03-23T16:02:13Z</time>
      </trkpt>
      <trkpt lat="45.19328" lon="4.63503">
        <ele>553.831</ele>
        <time>2013-03-23T16:02:21Z</time>
      </trkpt>
      <trkpt lat="45.19332" lon="4.63475">
        <ele>553.787</ele>
        <time>2013-03-23T16:02:26Z</time>
      </trkpt>
      <trkpt lat="45.19322" lon="4.63482">
        <ele>550.551</ele>
        <time>2013-03-23T16:02:31Z</time>
      </trkpt>
      <trkpt lat="45.1931" lon="4.63497">
        <ele>546.699</ele>
        <time>2013-03-23T16:02:35Z</time>
      </trkpt>
      <trkpt lat="45.1929" lon="4.63517">
        <ele>542.603</ele>
        <time>2013-03-23T16:02:40Z</time>
      </trkpt>
      <trkpt lat="45.19281" lon="4.63531">
        <ele>540.402</ele>
        <time>2013-03-23T16:02:43Z</time>
      </trkpt>
      <trkpt lat="45.19253" lon="4.63575">
        <ele>532.796</ele>
        <time>2013-03-23T16:02:54Z</time>
      </trkpt>
      <trkpt lat="45.19229" lon="4.63593">
        <ele>525.183</ele>
        <time>2013-03-23T16:03:02Z</time>
      </trkpt>
      <trkpt lat="45.19204" lon="4.6362">
        <ele>517.832</ele>
        <time>2013-03-23T16:03:10Z</time>
      </trkpt>
      <trkpt lat="45.19189" lon="4.63657">
        <ele>513.591</ele>
        <time>2013-03-23T16:03:16Z</time>
      </trkpt>
      <trkpt lat="45.19181" lon="4.63703">
        <ele>512.42</ele>
        <time>2013-03-23T16:03:22Z</time>
      </trkpt>
      <trkpt lat="45.1917" lon="4.63731">
        <ele>511.088</ele>
        <time>2013-03-23T16:03:26Z</time>
      </trkpt>
      <trkpt lat="45.19168" lon="4.63767">
        <ele>508.553</ele>
        <time>2013-03-23T16:03:30Z</time>
      </trkpt>
      <trkpt lat="45.19155" lon="4.63827">
        <ele>502.156</ele>
        <time>2013-03-23T16:03:35Z</time>
      </trkpt>
      <trkpt lat="45.19156" lon="4.63853">
        <ele>499.401</ele>
        <time>2013-03-23T16:03:38Z</time>
      </trkpt>
      <trkpt lat="45.19126" lon="4.63881">
        <ele>494.797</ele>
        <time>2013-03-23T16:03:45Z</time>
      </trkpt>
      <trkpt lat="45.1909" lon="4.63941">
        <ele>487.078</ele>
        <time>2013-03-23T16:03:53Z</time>
      </trkpt>
      <trkpt lat="45.19087" lon="4.63947">
        <ele>486.365</ele>
        <time>2013-03-23T16:03:54Z</time>
      </trkpt>
      <trkpt lat="45.19089" lon="4.63983">
        <ele>483.843</ele>
        <time>2013-03-23T16:04:01Z</time>
      </trkpt>
      <trkpt lat="45.19094" lon="4.64002">
        <ele>482.977</ele>
        <time>2013-03-23T16:04:04Z</time>
      </trkpt>
      <trkpt lat="45.19098" lon="4.64022">
        <ele>482.131</ele>
        <time>2013-03-23T16:04:07Z</time>
      </trkpt>
      <trkpt lat="45.19109" lon="4.64068">
        <ele>479.176</ele>
        <time>2013-03-23T16:04:13Z</time>
      </trkpt>
      <trkpt lat="45.19108" lon="4.64107">
        <ele>474.985</ele>
        <time>2013-03-23T16:04:19Z</time>
      </trkpt>
      <trkpt lat="45.19118" lon="4.64122">
        <ele>474.33</ele>
        <time>2013-03-23T16:04:21Z</time>
      </trkpt>
      <trkpt lat="45.19171" lon="4.64187">
        <ele>474.231</ele>
        <time>2013-03-23T16:04:35Z</time>
      </trkpt>
      <trkpt lat="45.19215" lon="4.64243">
        <ele>476.081</ele>
        <time>2013-03-23T16:04:50Z</time>
      </trkpt>
      <trkpt lat="45.19234" lon="4.64268">
        <ele>476.615</ele>
        <time>2013-03-23T16:05:01Z</time>
      </trkpt>
      <trkpt lat="45.19217" lon="4.64295">
        <ele>473.299</ele>
        <time>2013-03-23T16:05:08Z</time>
      </trkpt>
      <trkpt lat="45.19238" lon="4.64272">
        <ele>472.17</ele>
        <time>2013-03-23T16:05:13Z</time>
      </trkpt>
      <trkpt lat="45.19238" lon="4.64272">
        <ele>472.183</ele>
        <time>2013-03-23T16:05:22Z</time>
      </trkpt>
      <trkpt lat="45.19238" lon="4.64272">
        <ele>471.273</ele>
        <time>2013-03-23T16:13:30Z</time>
      </trkpt>
      <trkpt lat="45.19237" lon="4.64272">
        <ele>471.319</ele>
        <time>2013-03-23T16:13:33Z</time>
      </trkpt>
      <trkpt lat="45.19216" lon="4.64291">
        <ele>472.028</ele>
        <time>2013-03-23T16:13:39Z</time>
      </trkpt>
      <trkpt lat="45.19219" lon="4.64287">
        <ele>472.476</ele>
        <time>2013-03-23T16:13:40Z</time>
      </trkpt>
      <trkpt lat="45.19227" lon="4.64276">
        <ele>474.222</ele>
        <time>2013-03-23T16:13:43Z</time>
      </trkpt>
      <trkpt lat="45.19247" lon="4.64279">
        <ele>476.031</ele>
        <time>2013-03-23T16:13:49Z</time>
      </trkpt>
      <trkpt lat="45.19254" lon="4.64282">
        <ele>474.536</ele>
        <time>2013-03-23T16:13:51Z</time>
      </trkpt>
      <trkpt lat="45.19272" lon="4.64389">
        <ele>468.93</ele>
        <time>2013-03-23T16:14:00Z</time>
      </trkpt>
      <trkpt lat="45.1928" lon="4.64423">
        <ele>467.751</ele>
        <time>2013-03-23T16:14:03Z</time>
      </trkpt>
      <trkpt lat="45.19276" lon="4.6447">
        <ele>466.198</ele>
        <time>2013-03-23T16:14:07Z</time>
      </trkpt>
      <trkpt lat="45.19269" lon="4.64494">
        <ele>464.872</ele>
        <time>2013-03-23T16:14:11Z</time>
      </trkpt>
      <trkpt lat="45.19284" lon="4.64513">
        <ele>464.564</ele>
        <time>2013-03-23T16:14:15Z</time>
      </trkpt>
      <trkpt lat="45.19316" lon="4.64542">
        <ele>463.608</ele>
        <time>2013-03-23T16:14:21Z</time>
      </trkpt>
      <trkpt lat="45.19371" lon="4.64579">
        <ele>461.91</ele>
        <time>2013-03-23T16:14:29Z</time>
      </trkpt>
      <trkpt lat="45.19387" lon="4.64616">
        <ele>460.227</ele>
        <time>2013-03-23T16:14:33Z</time>
      </trkpt>
      <trkpt lat="45.19388" lon="4.64694">
        <ele>457.44</ele>
        <time>2013-03-23T16:14:39Z</time>
      </trkpt>
      <trkpt lat="45.19403" lon="4.64802">
        <ele>451.459</ele>
        <time>2013-03-23T16:14:47Z</time>
      </trkpt>
      <trkpt lat="45.19407" lon="4.64817">
        <ele>450.487</ele>
        <time>2013-03-23T16:14:52Z</time>
      </trkpt>
      <trkpt lat="45.19407" lon="4.64817">
        <ele>450.252</ele>
        <time>2013-03-23T16:14:55Z</time>
      </trkpt>
      <trkpt lat="45.19407" lon="4.64822">
        <ele>449.06</ele>
        <time>2013-03-23T16:15:02Z</time>
      </trkpt>
      <trkpt lat="45.19404" lon="4.64845">
        <ele>449.093</ele>
        <time>2013-03-23T16:15:05Z</time>
      </trkpt>
      <trkpt lat="45.19359" lon="4.64837">
        <ele>447.518</ele>
        <time>2013-03-23T16:15:13Z</time>
      </trkpt>
      <trkpt lat="45.19345" lon="4.64834">
        <ele>447.391</ele>
        <time>2013-03-23T16:15:18Z</time>
      </trkpt>
      <trkpt lat="45.19341" lon="4.64833">
        <ele>446.665</ele>
        <time>2013-03-23T16:15:26Z</time>
      </trkpt>
      <trkpt lat="45.19336" lon="4.64859">
        <ele>446.322</ele>
        <time>2013-03-23T16:15:35Z</time>
      </trkpt>
      <trkpt lat="45.19336" lon="4.6486">
        <ele>445.843</ele>
        <time>2013-03-23T16:15:37Z</time>
      </trkpt>
    </trkseg>
  </trk>
</gpx>